<?xml version="1.0" encoding="UTF-8" standalone="no" ?><gpx xmlns="http://www.topografix.com/GPX/1/1" xmlns:gpxx="http://www.garmin.com/xmlschemas/GpxExtensions/v3" xmlns:wptx1="http://www.garmin.com/xmlschemas/WaypointExtension/v1" xmlns:gpxtpx="http://www.garmin.com/xmlschemas/TrackPointExtension/v1" creator="Dakota 20" version="1.1" xmlns:xsi="http://www.w3.org/2001/XMLSchema-instance" xsi:schemaLocation="http://www.topografix.com/GPX/1/1 http://www.topografix.com/GPX/1/1/gpx.xsd http://www.garmin.com/xmlschemas/GpxExtensions/v3 http://www8.garmin.com/xmlschemas/GpxExtensionsv3.xsd http://www.garmin.com/xmlschemas/WaypointExtension/v1 http://www8.garmin.com/xmlschemas/WaypointExtensionv1.xsd http://www.garmin.com/xmlschemas/TrackPointExtension/v1 http://www.garmin.com/xmlschemas/TrackPointExtensionv1.xsd"><metadata><link href="http://www.garmin.com"><text>Garmin International</text></link><time>2014-09-24T19:25:46Z</time></metadata><trk><name>Current Track: 24 SEP 2014 10:01</name><extensions><gpxx:TrackExtension><gpxx:DisplayColor>Cyan</gpxx:DisplayColor></gpxx:TrackExtension></extensions><trkseg><trkpt lat="51.7967332341" lon="-2.4243023805"><ele>12.15</ele><time>2014-09-24T09:01:06Z</time></trkpt><trkpt lat="51.7967329826" lon="-2.4243029673"><ele>15.04</ele><time>2014-09-24T09:01:09Z</time></trkpt><trkpt lat="51.7967324797" lon="-2.4243036378"><ele>14.08</ele><time>2014-09-24T09:01:12Z</time></trkpt><trkpt lat="51.7967081722" lon="-2.4242877960"><ele>13.12</ele><time>2014-09-24T09:01:23Z</time></trkpt><trkpt lat="51.7966712918" lon="-2.4243431166"><ele>12.63</ele><time>2014-09-24T09:01:43Z</time></trkpt><trkpt lat="51.7966886424" lon="-2.4243956711"><ele>12.15</ele><time>2014-09-24T09:02:09Z</time></trkpt><trkpt lat="51.7966444697" lon="-2.4244587868"><ele>12.63</ele><time>2014-09-24T09:02:25Z</time></trkpt><trkpt lat="51.7965677753" lon="-2.4245695118"><ele>14.08</ele><time>2014-09-24T09:02:43Z</time></trkpt><trkpt lat="51.7965596449" lon="-2.4245719425"><ele>12.63</ele><time>2014-09-24T09:02:44Z</time></trkpt><trkpt lat="51.7964288872" lon="-2.4246055540"><ele>14.56</ele><time>2014-09-24T09:02:57Z</time></trkpt><trkpt lat="51.7963573057" lon="-2.4243768957"><ele>14.08</ele><time>2014-09-24T09:03:13Z</time></trkpt><trkpt lat="51.7963619996" lon="-2.4243213236"><ele>13.60</ele><time>2014-09-24T09:03:16Z</time></trkpt><trkpt lat="51.7963487562" lon="-2.4242249317"><ele>13.60</ele><time>2014-09-24T09:03:21Z</time></trkpt><trkpt lat="51.7963127978" lon="-2.4240143783"><ele>13.60</ele><time>2014-09-24T09:03:39Z</time></trkpt><trkpt lat="51.7963124625" lon="-2.4239869695"><ele>14.08</ele><time>2014-09-24T09:03:56Z</time></trkpt><trkpt lat="51.7963016499" lon="-2.4238397833"><ele>13.12</ele><time>2014-09-24T09:04:18Z</time></trkpt><trkpt lat="51.7962724809" lon="-2.4235896673"><ele>13.60</ele><time>2014-09-24T09:04:33Z</time></trkpt><trkpt lat="51.7962509394" lon="-2.4233542196"><ele>13.60</ele><time>2014-09-24T09:04:52Z</time></trkpt><trkpt lat="51.7963201739" lon="-2.4231110606"><ele>13.60</ele><time>2014-09-24T09:05:10Z</time></trkpt><trkpt lat="51.7962812819" lon="-2.4231481925"><ele>13.60</ele><time>2014-09-24T09:05:23Z</time></trkpt><trkpt lat="51.7964178231" lon="-2.4229146726"><ele>13.60</ele><time>2014-09-24T09:05:41Z</time></trkpt><trkpt lat="51.7962935194" lon="-2.4222397618"><ele>13.60</ele><time>2014-09-24T09:06:02Z</time></trkpt></trkseg><trkseg><trkpt lat="51.7983394582" lon="-2.4212494399"><ele>14.08</ele><time>2014-09-24T09:09:00Z</time></trkpt><trkpt lat="51.7983098701" lon="-2.4211171735"><ele>14.08</ele><time>2014-09-24T09:09:11Z</time></trkpt><trkpt lat="51.7984016519" lon="-2.4209812190"><ele>14.56</ele><time>2014-09-24T09:09:29Z</time></trkpt><trkpt lat="51.7984114587" lon="-2.4209523015"><ele>14.08</ele><time>2014-09-24T09:09:31Z</time></trkpt><trkpt lat="51.7985007260" lon="-2.4208052829"><ele>14.56</ele><time>2014-09-24T09:09:39Z</time></trkpt><trkpt lat="51.7985831201" lon="-2.4205057975"><ele>14.08</ele><time>2014-09-24T09:09:51Z</time></trkpt><trkpt lat="51.7986482475" lon="-2.4204723537"><ele>14.08</ele><time>2014-09-24T09:10:00Z</time></trkpt><trkpt lat="51.7988252733" lon="-2.4204177037"><ele>14.08</ele><time>2014-09-24T09:10:18Z</time></trkpt><trkpt lat="51.7988584656" lon="-2.4203512352"><ele>14.08</ele><time>2014-09-24T09:10:24Z</time></trkpt><trkpt lat="51.7988731340" lon="-2.4203229044"><ele>14.08</ele><time>2014-09-24T09:10:26Z</time></trkpt><trkpt lat="51.7989342380" lon="-2.4202129338"><ele>9.75</ele><time>2014-09-24T09:10:35Z</time></trkpt><trkpt lat="51.7989427876" lon="-2.4202048872"><ele>13.60</ele><time>2014-09-24T09:10:36Z</time></trkpt><trkpt lat="51.7990647443" lon="-2.4200583715"><ele>14.08</ele><time>2014-09-24T09:10:53Z</time></trkpt><trkpt lat="51.7991011217" lon="-2.4200348184"><ele>9.75</ele><time>2014-09-24T09:11:00Z</time></trkpt><trkpt lat="51.7991082463" lon="-2.4200304598"><ele>16.96</ele><time>2014-09-24T09:11:01Z</time></trkpt><trkpt lat="51.7991098389" lon="-2.4200304598"><ele>13.60</ele><time>2014-09-24T09:11:03Z</time></trkpt><trkpt lat="51.7991119344" lon="-2.4200310465"><ele>14.08</ele><time>2014-09-24T09:11:04Z</time></trkpt><trkpt lat="51.7991478927" lon="-2.4199641589"><ele>16.00</ele><time>2014-09-24T09:11:25Z</time></trkpt><trkpt lat="51.7991526704" lon="-2.4199586269"><ele>12.63</ele><time>2014-09-24T09:11:26Z</time></trkpt><trkpt lat="51.7991924845" lon="-2.4199086707"><ele>12.63</ele><time>2014-09-24T09:11:32Z</time></trkpt><trkpt lat="51.7992408480" lon="-2.4198320601"><ele>14.56</ele><time>2014-09-24T09:11:40Z</time></trkpt><trkpt lat="51.7993114237" lon="-2.4196941778"><ele>11.67</ele><time>2014-09-24T09:11:52Z</time></trkpt><trkpt lat="51.7993274331" lon="-2.4196516816"><ele>13.60</ele><time>2014-09-24T09:11:55Z</time></trkpt><trkpt lat="51.7993379943" lon="-2.4196129572"><ele>14.08</ele><time>2014-09-24T09:11:57Z</time></trkpt><trkpt lat="51.7993691750" lon="-2.4195587263"><ele>12.15</ele><time>2014-09-24T09:12:00Z</time></trkpt><trkpt lat="51.7993879505" lon="-2.4195493385"><ele>12.63</ele><time>2014-09-24T09:12:01Z</time></trkpt><trkpt lat="51.7994619627" lon="-2.4194350094"><ele>13.60</ele><time>2014-09-24T09:12:11Z</time></trkpt><trkpt lat="51.7995063029" lon="-2.4193823710"><ele>12.15</ele><time>2014-09-24T09:12:17Z</time></trkpt><trkpt lat="51.7995278444" lon="-2.4193435628"><ele>13.12</ele><time>2014-09-24T09:12:19Z</time></trkpt><trkpt lat="51.7995746993" lon="-2.4192708917"><ele>14.56</ele><time>2014-09-24T09:12:23Z</time></trkpt><trkpt lat="51.7995988391" lon="-2.4192358553"><ele>13.12</ele><time>2014-09-24T09:12:25Z</time></trkpt><trkpt lat="51.7996417545" lon="-2.4191594124"><ele>10.71</ele><time>2014-09-24T09:12:31Z</time></trkpt><trkpt lat="51.7996478733" lon="-2.4191436544"><ele>13.12</ele><time>2014-09-24T09:12:32Z</time></trkpt><trkpt lat="51.7997527309" lon="-2.4189554807"><ele>14.56</ele><time>2014-09-24T09:12:42Z</time></trkpt><trkpt lat="51.7997672316" lon="-2.4189299997"><ele>12.15</ele><time>2014-09-24T09:12:44Z</time></trkpt><trkpt lat="51.7997764517" lon="-2.4188912753"><ele>13.60</ele><time>2014-09-24T09:12:47Z</time></trkpt><trkpt lat="51.7998153437" lon="-2.4187656306"><ele>12.63</ele><time>2014-09-24T09:12:53Z</time></trkpt><trkpt lat="51.7998474464" lon="-2.4186819792"><ele>14.56</ele><time>2014-09-24T09:12:57Z</time></trkpt><trkpt lat="51.7998812255" lon="-2.4185386486"><ele>12.63</ele><time>2014-09-24T09:13:05Z</time></trkpt><trkpt lat="51.7999994941" lon="-2.4183056317"><ele>12.63</ele><time>2014-09-24T09:13:17Z</time></trkpt><trkpt lat="51.8001120631" lon="-2.4181581102"><ele>12.15</ele><time>2014-09-24T09:13:27Z</time></trkpt><trkpt lat="51.8002714030" lon="-2.4179491494"><ele>13.60</ele><time>2014-09-24T09:13:42Z</time></trkpt><trkpt lat="51.8003266398" lon="-2.4178708624"><ele>12.15</ele><time>2014-09-24T09:13:48Z</time></trkpt><trkpt lat="51.8004174158" lon="-2.4176668469"><ele>10.23</ele><time>2014-09-24T09:14:00Z</time></trkpt><trkpt lat="51.8004332576" lon="-2.4176445510"><ele>12.15</ele><time>2014-09-24T09:14:03Z</time></trkpt><trkpt lat="51.8004792742" lon="-2.4176497478"><ele>11.19</ele><time>2014-09-24T09:14:18Z</time></trkpt><trkpt lat="51.8004861474" lon="-2.4176484067"><ele>11.19</ele><time>2014-09-24T09:14:22Z</time></trkpt><trkpt lat="51.8004770111" lon="-2.4176303018"><ele>13.12</ele><time>2014-09-24T09:14:25Z</time></trkpt><trkpt lat="51.8004656117" lon="-2.4176067486"><ele>9.75</ele><time>2014-09-24T09:14:27Z</time></trkpt><trkpt lat="51.8004582357" lon="-2.4175955169"><ele>9.75</ele><time>2014-09-24T09:14:28Z</time></trkpt><trkpt lat="51.8004418910" lon="-2.4175732210"><ele>12.15</ele><time>2014-09-24T09:14:30Z</time></trkpt><trkpt lat="51.8004257977" lon="-2.4175516795"><ele>10.23</ele><time>2014-09-24T09:14:32Z</time></trkpt><trkpt lat="51.8004077766" lon="-2.4175289646"><ele>11.67</ele><time>2014-09-24T09:14:34Z</time></trkpt><trkpt lat="51.8003048468" lon="-2.4173272960"><ele>11.19</ele><time>2014-09-24T09:14:45Z</time></trkpt><trkpt lat="51.8002800364" lon="-2.4173012283"><ele>12.15</ele><time>2014-09-24T09:14:47Z</time></trkpt><trkpt lat="51.8002395518" lon="-2.4172249530"><ele>10.23</ele><time>2014-09-24T09:14:52Z</time></trkpt><trkpt lat="51.8001869135" lon="-2.4171230290"><ele>11.67</ele><time>2014-09-24T09:14:58Z</time></trkpt><trkpt lat="51.8001566548" lon="-2.4170388747"><ele>13.12</ele><time>2014-09-24T09:15:02Z</time></trkpt><trkpt lat="51.8001285754" lon="-2.4169776030"><ele>9.75</ele><time>2014-09-24T09:15:05Z</time></trkpt><trkpt lat="51.8001211993" lon="-2.4169553071"><ele>10.23</ele><time>2014-09-24T09:15:06Z</time></trkpt><trkpt lat="51.8000640348" lon="-2.4167721625"><ele>13.12</ele><time>2014-09-24T09:15:16Z</time></trkpt><trkpt lat="51.7999860831" lon="-2.4166201148"><ele>9.27</ele><time>2014-09-24T09:15:28Z</time></trkpt><trkpt lat="51.7999817245" lon="-2.4166163430"><ele>12.15</ele><time>2014-09-24T09:15:29Z</time></trkpt><trkpt lat="51.7999579199" lon="-2.4166052788"><ele>12.15</ele><time>2014-09-24T09:15:37Z</time></trkpt><trkpt lat="51.7999638710" lon="-2.4164829869"><ele>12.15</ele><time>2014-09-24T09:15:52Z</time></trkpt><trkpt lat="51.7999564949" lon="-2.4164404906"><ele>12.15</ele><time>2014-09-24T09:15:59Z</time></trkpt><trkpt lat="51.7999411561" lon="-2.4164057896"><ele>10.71</ele><time>2014-09-24T09:16:01Z</time></trkpt><trkpt lat="51.7999057006" lon="-2.4162628781"><ele>14.08</ele><time>2014-09-24T09:16:08Z</time></trkpt><trkpt lat="51.7998554930" lon="-2.4160953239"><ele>10.71</ele><time>2014-09-24T09:16:16Z</time></trkpt><trkpt lat="51.7997878511" lon="-2.4158374965"><ele>10.71</ele><time>2014-09-24T09:16:31Z</time></trkpt><trkpt lat="51.7996742763" lon="-2.4154915754"><ele>9.27</ele><time>2014-09-24T09:16:50Z</time></trkpt><trkpt lat="51.7996615358" lon="-2.4154007994"><ele>9.75</ele><time>2014-09-24T09:17:07Z</time></trkpt><trkpt lat="51.7995852605" lon="-2.4151176587"><ele>9.75</ele><time>2014-09-24T09:17:26Z</time></trkpt><trkpt lat="51.7995785549" lon="-2.4151083548"><ele>9.75</ele><time>2014-09-24T09:17:47Z</time></trkpt><trkpt lat="51.7995815724" lon="-2.4150993023"><ele>9.27</ele><time>2014-09-24T09:18:08Z</time></trkpt><trkpt lat="51.7995604500" lon="-2.4150770903"><ele>10.23</ele><time>2014-09-24T09:18:24Z</time></trkpt><trkpt lat="51.7995598633" lon="-2.4150237814"><ele>10.71</ele><time>2014-09-24T09:18:29Z</time></trkpt><trkpt lat="51.7995675746" lon="-2.4147429876"><ele>9.27</ele><time>2014-09-24T09:18:42Z</time></trkpt><trkpt lat="51.7996007670" lon="-2.4144859146"><ele>11.19</ele><time>2014-09-24T09:18:59Z</time></trkpt><trkpt lat="51.7996212188" lon="-2.4143742677"><ele>11.19</ele><time>2014-09-24T09:19:05Z</time></trkpt><trkpt lat="51.7996368930" lon="-2.4142722599"><ele>10.71</ele><time>2014-09-24T09:19:10Z</time></trkpt><trkpt lat="51.7996693309" lon="-2.4140080623"><ele>10.71</ele><time>2014-09-24T09:19:26Z</time></trkpt><trkpt lat="51.7997003440" lon="-2.4137847684"><ele>10.23</ele><time>2014-09-24T09:19:37Z</time></trkpt><trkpt lat="51.7997890245" lon="-2.4134144560"><ele>10.23</ele><time>2014-09-24T09:19:56Z</time></trkpt><trkpt lat="51.7998319399" lon="-2.4131549522"><ele>8.79</ele><time>2014-09-24T09:20:12Z</time></trkpt><trkpt lat="51.7998722568" lon="-2.4130212609"><ele>9.27</ele><time>2014-09-24T09:20:21Z</time></trkpt><trkpt lat="51.7999323551" lon="-2.4127173331"><ele>9.75</ele><time>2014-09-24T09:20:41Z</time></trkpt><trkpt lat="51.7999893520" lon="-2.4126421474"><ele>10.71</ele><time>2014-09-24T09:20:56Z</time></trkpt><trkpt lat="51.7999729235" lon="-2.4126241263"><ele>9.27</ele><time>2014-09-24T09:20:58Z</time></trkpt><trkpt lat="51.7999696545" lon="-2.4126146547"><ele>10.23</ele><time>2014-09-24T09:20:59Z</time></trkpt><trkpt lat="51.7999397311" lon="-2.4123458471"><ele>10.23</ele><time>2014-09-24T09:21:13Z</time></trkpt><trkpt lat="51.7999022640" lon="-2.4120396562"><ele>10.23</ele><time>2014-09-24T09:21:30Z</time></trkpt><trkpt lat="51.7998437583" lon="-2.4116813298"><ele>10.23</ele><time>2014-09-24T09:21:48Z</time></trkpt><trkpt lat="51.7997955624" lon="-2.4113970157"><ele>9.27</ele><time>2014-09-24T09:22:03Z</time></trkpt><trkpt lat="51.7997931316" lon="-2.4113639910"><ele>9.75</ele><time>2014-09-24T09:22:05Z</time></trkpt><trkpt lat="51.7997380625" lon="-2.4110228475"><ele>9.75</ele><time>2014-09-24T09:22:24Z</time></trkpt><trkpt lat="51.7996990867" lon="-2.4107726477"><ele>10.71</ele><time>2014-09-24T09:22:38Z</time></trkpt><trkpt lat="51.7996396590" lon="-2.4104753416"><ele>9.75</ele><time>2014-09-24T09:22:55Z</time></trkpt><trkpt lat="51.7996144295" lon="-2.4103678856"><ele>9.75</ele><time>2014-09-24T09:23:01Z</time></trkpt><trkpt lat="51.7995927203" lon="-2.4100612756"><ele>10.23</ele><time>2014-09-24T09:23:19Z</time></trkpt><trkpt lat="51.7995875236" lon="-2.4099761155"><ele>9.75</ele><time>2014-09-24T09:23:40Z</time></trkpt><trkpt lat="51.7995798122" lon="-2.4099383969"><ele>10.23</ele><time>2014-09-24T09:23:42Z</time></trkpt><trkpt lat="51.7995439377" lon="-2.4096549209"><ele>9.27</ele><time>2014-09-24T09:23:55Z</time></trkpt><trkpt lat="51.7995302752" lon="-2.4094193894"><ele>10.71</ele><time>2014-09-24T09:24:07Z</time></trkpt><trkpt lat="51.7995304428" lon="-2.4092053995"><ele>9.75</ele><time>2014-09-24T09:24:20Z</time></trkpt><trkpt lat="51.7995450273" lon="-2.4090396054"><ele>9.27</ele><time>2014-09-24T09:24:28Z</time></trkpt><trkpt lat="51.7995950673" lon="-2.4087080173"><ele>9.27</ele><time>2014-09-24T09:24:44Z</time></trkpt><trkpt lat="51.7996211350" lon="-2.4084564764"><ele>9.27</ele><time>2014-09-24T09:25:01Z</time></trkpt><trkpt lat="51.7996243201" lon="-2.4083527923"><ele>9.75</ele><time>2014-09-24T09:25:06Z</time></trkpt><trkpt lat="51.7996456102" lon="-2.4082184304"><ele>10.71</ele><time>2014-09-24T09:25:11Z</time></trkpt><trkpt lat="51.7996729352" lon="-2.4078010954"><ele>9.27</ele><time>2014-09-24T09:25:31Z</time></trkpt><trkpt lat="51.7996964883" lon="-2.4075006880"><ele>8.79</ele><time>2014-09-24T09:25:49Z</time></trkpt><trkpt lat="51.7997175269" lon="-2.4071752187"><ele>9.27</ele><time>2014-09-24T09:26:07Z</time></trkpt><trkpt lat="51.7997395713" lon="-2.4068155512"><ele>9.75</ele><time>2014-09-24T09:26:24Z</time></trkpt><trkpt lat="51.7997633759" lon="-2.4065493420"><ele>9.27</ele><time>2014-09-24T09:26:38Z</time></trkpt><trkpt lat="51.7997688241" lon="-2.4062966276"><ele>8.79</ele><time>2014-09-24T09:26:51Z</time></trkpt><trkpt lat="51.7997617833" lon="-2.4059678055"><ele>8.79</ele><time>2014-09-24T09:27:09Z</time></trkpt><trkpt lat="51.7997834925" lon="-2.4056607764"><ele>9.27</ele><time>2014-09-24T09:27:25Z</time></trkpt><trkpt lat="51.7998138350" lon="-2.4052933138"><ele>9.27</ele><time>2014-09-24T09:27:43Z</time></trkpt><trkpt lat="51.7998468596" lon="-2.4049414415"><ele>9.27</ele><time>2014-09-24T09:28:01Z</time></trkpt><trkpt lat="51.7998984922" lon="-2.4046922475"><ele>8.79</ele><time>2014-09-24T09:28:15Z</time></trkpt><trkpt lat="51.7999694031" lon="-2.4045870546"><ele>8.79</ele><time>2014-09-24T09:28:30Z</time></trkpt><trkpt lat="51.8000073731" lon="-2.4045812711"><ele>9.27</ele><time>2014-09-24T09:28:36Z</time></trkpt><trkpt lat="51.8000270706" lon="-2.4045608193"><ele>8.79</ele><time>2014-09-24T09:28:55Z</time></trkpt><trkpt lat="51.8000344466" lon="-2.4045521859"><ele>8.31</ele><time>2014-09-24T09:29:22Z</time></trkpt><trkpt lat="51.8000338599" lon="-2.4045525212"><ele>8.31</ele><time>2014-09-24T09:29:53Z</time></trkpt><trkpt lat="51.8000306748" lon="-2.4045471568"><ele>8.79</ele><time>2014-09-24T09:30:17Z</time></trkpt><trkpt lat="51.8000272382" lon="-2.4045278784"><ele>8.79</ele><time>2014-09-24T09:30:41Z</time></trkpt><trkpt lat="51.8000305071" lon="-2.4044169020"><ele>9.27</ele><time>2014-09-24T09:30:52Z</time></trkpt><trkpt lat="51.8000509590" lon="-2.4042185862"><ele>7.83</ele><time>2014-09-24T09:31:01Z</time></trkpt><trkpt lat="51.8001444172" lon="-2.4038330186"><ele>8.79</ele><time>2014-09-24T09:31:22Z</time></trkpt><trkpt lat="51.8001988996" lon="-2.4035609420"><ele>8.79</ele><time>2014-09-24T09:31:39Z</time></trkpt><trkpt lat="51.8002323434" lon="-2.4033338763"><ele>7.83</ele><time>2014-09-24T09:31:56Z</time></trkpt><trkpt lat="51.8002302479" lon="-2.4033227284"><ele>7.35</ele><time>2014-09-24T09:32:09Z</time></trkpt><trkpt lat="51.8002821319" lon="-2.4031660706"><ele>9.75</ele><time>2014-09-24T09:32:18Z</time></trkpt><trkpt lat="51.8004081957" lon="-2.4030723609"><ele>9.75</ele><time>2014-09-24T09:32:35Z</time></trkpt><trkpt lat="51.8005278055" lon="-2.4030091614"><ele>9.27</ele><time>2014-09-24T09:32:47Z</time></trkpt><trkpt lat="51.8005659431" lon="-2.4029980972"><ele>8.31</ele><time>2014-09-24T09:32:51Z</time></trkpt><trkpt lat="51.8006946053" lon="-2.4029311258"><ele>9.27</ele><time>2014-09-24T09:33:02Z</time></trkpt><trkpt lat="51.8008751515" lon="-2.4027956743"><ele>9.27</ele><time>2014-09-24T09:33:18Z</time></trkpt><trkpt lat="51.8010781612" lon="-2.4028077442"><ele>8.79</ele><time>2014-09-24T09:33:34Z</time></trkpt><trkpt lat="51.8011468928" lon="-2.4028562754"><ele>10.71</ele><time>2014-09-24T09:33:41Z</time></trkpt><trkpt lat="51.8012214079" lon="-2.4029100034"><ele>10.71</ele><time>2014-09-24T09:33:58Z</time></trkpt><trkpt lat="51.8012539297" lon="-2.4029493146"><ele>10.71</ele><time>2014-09-24T09:34:15Z</time></trkpt><trkpt lat="51.8012531754" lon="-2.4030270986"><ele>14.08</ele><time>2014-09-24T09:34:25Z</time></trkpt><trkpt lat="51.8012504932" lon="-2.4030413479"><ele>10.23</ele><time>2014-09-24T09:34:27Z</time></trkpt><trkpt lat="51.8012734596" lon="-2.4030692596"><ele>12.63</ele><time>2014-09-24T09:34:38Z</time></trkpt><trkpt lat="51.8012962583" lon="-2.4031356443"><ele>12.15</ele><time>2014-09-24T09:34:42Z</time></trkpt><trkpt lat="51.8013310432" lon="-2.4032685813"><ele>13.12</ele><time>2014-09-24T09:34:48Z</time></trkpt><trkpt lat="51.8014041334" lon="-2.4035155959"><ele>11.67</ele><time>2014-09-24T09:35:04Z</time></trkpt><trkpt lat="51.8014806602" lon="-2.4037005007"><ele>11.19</ele><time>2014-09-24T09:35:17Z</time></trkpt><trkpt lat="51.8015804049" lon="-2.4039433245"><ele>11.19</ele><time>2014-09-24T09:35:31Z</time></trkpt><trkpt lat="51.8017137609" lon="-2.4041765090"><ele>11.19</ele><time>2014-09-24T09:35:47Z</time></trkpt><trkpt lat="51.8017353863" lon="-2.4042147305"><ele>12.63</ele><time>2014-09-24T09:35:49Z</time></trkpt><trkpt lat="51.8017680757" lon="-2.4042680394"><ele>11.19</ele><time>2014-09-24T09:35:53Z</time></trkpt><trkpt lat="51.8017815705" lon="-2.4042974599"><ele>12.15</ele><time>2014-09-24T09:35:55Z</time></trkpt><trkpt lat="51.8018013518" lon="-2.4043317419"><ele>11.19</ele><time>2014-09-24T09:35:59Z</time></trkpt><trkpt lat="51.8019145913" lon="-2.4044789281"><ele>12.15</ele><time>2014-09-24T09:36:11Z</time></trkpt><trkpt lat="51.8019436765" lon="-2.4045357574"><ele>11.67</ele><time>2014-09-24T09:36:15Z</time></trkpt><trkpt lat="51.8021019269" lon="-2.4047515914"><ele>13.60</ele><time>2014-09-24T09:36:31Z</time></trkpt><trkpt lat="51.8021529727" lon="-2.4048096780"><ele>13.12</ele><time>2014-09-24T09:36:37Z</time></trkpt><trkpt lat="51.8021614384" lon="-2.4048272800"><ele>13.60</ele><time>2014-09-24T09:36:38Z</time></trkpt><trkpt lat="51.8021947984" lon="-2.4048548564"><ele>12.15</ele><time>2014-09-24T09:36:41Z</time></trkpt><trkpt lat="51.8021994922" lon="-2.4048656691"><ele>12.63</ele><time>2014-09-24T09:36:42Z</time></trkpt><trkpt lat="51.8022285774" lon="-2.4049283657"><ele>12.63</ele><time>2014-09-24T09:36:46Z</time></trkpt><trkpt lat="51.8022755999" lon="-2.4050359894"><ele>13.60</ele><time>2014-09-24T09:36:53Z</time></trkpt><trkpt lat="51.8023361173" lon="-2.4051502347"><ele>12.15</ele><time>2014-09-24T09:37:01Z</time></trkpt><trkpt lat="51.8024426512" lon="-2.4053854309"><ele>13.12</ele><time>2014-09-24T09:37:14Z</time></trkpt><trkpt lat="51.8025376182" lon="-2.4055459443"><ele>12.15</ele><time>2014-09-24T09:37:26Z</time></trkpt><trkpt lat="51.8025602493" lon="-2.4055860937"><ele>13.12</ele><time>2014-09-24T09:37:29Z</time></trkpt><trkpt lat="51.8025989737" lon="-2.4056628719"><ele>12.15</ele><time>2014-09-24T09:37:34Z</time></trkpt><trkpt lat="51.8026100378" lon="-2.4057048652"><ele>11.19</ele><time>2014-09-24T09:37:36Z</time></trkpt><trkpt lat="51.8026237004" lon="-2.4057311006"><ele>13.12</ele><time>2014-09-24T09:37:38Z</time></trkpt><trkpt lat="51.8027039990" lon="-2.4059300870"><ele>14.56</ele><time>2014-09-24T09:37:49Z</time></trkpt><trkpt lat="51.8027138896" lon="-2.4059600942"><ele>11.19</ele><time>2014-09-24T09:37:51Z</time></trkpt><trkpt lat="51.8027748261" lon="-2.4060999881"><ele>10.71</ele><time>2014-09-24T09:38:10Z</time></trkpt><trkpt lat="51.8027809449" lon="-2.4061602540"><ele>11.19</ele><time>2014-09-24T09:38:16Z</time></trkpt><trkpt lat="51.8028688710" lon="-2.4063591566"><ele>10.71</ele><time>2014-09-24T09:38:31Z</time></trkpt><trkpt lat="51.8028805219" lon="-2.4063848890"><ele>11.67</ele><time>2014-09-24T09:38:33Z</time></trkpt><trkpt lat="51.8029419612" lon="-2.4065833725"><ele>12.63</ele><time>2014-09-24T09:38:43Z</time></trkpt><trkpt lat="51.8029640894" lon="-2.4066409562"><ele>9.27</ele><time>2014-09-24T09:38:46Z</time></trkpt><trkpt lat="51.8030038197" lon="-2.4067425448"><ele>12.63</ele><time>2014-09-24T09:38:53Z</time></trkpt><trkpt lat="51.8030143809" lon="-2.4067806825"><ele>10.71</ele><time>2014-09-24T09:38:56Z</time></trkpt><trkpt lat="51.8031018041" lon="-2.4070919864"><ele>11.67</ele><time>2014-09-24T09:39:13Z</time></trkpt><trkpt lat="51.8032072484" lon="-2.4073582795"><ele>10.71</ele><time>2014-09-24T09:39:31Z</time></trkpt><trkpt lat="51.8032823503" lon="-2.4076184537"><ele>12.15</ele><time>2014-09-24T09:39:45Z</time></trkpt><trkpt lat="51.8033492379" lon="-2.4079122394"><ele>12.15</ele><time>2014-09-24T09:40:01Z</time></trkpt><trkpt lat="51.8034347333" lon="-2.4082436599"><ele>13.12</ele><time>2014-09-24T09:40:19Z</time></trkpt><trkpt lat="51.8034488987" lon="-2.4082897604"><ele>11.67</ele><time>2014-09-24T09:40:22Z</time></trkpt><trkpt lat="51.8035214860" lon="-2.4085326679"><ele>12.15</ele><time>2014-09-24T09:40:38Z</time></trkpt><trkpt lat="51.8035984319" lon="-2.4088568799"><ele>11.19</ele><time>2014-09-24T09:40:56Z</time></trkpt><trkpt lat="51.8036800716" lon="-2.4091448821"><ele>11.67</ele><time>2014-09-24T09:41:12Z</time></trkpt><trkpt lat="51.8037164491" lon="-2.4092393462"><ele>12.63</ele><time>2014-09-24T09:41:18Z</time></trkpt><trkpt lat="51.8037907965" lon="-2.4095866084"><ele>8.79</ele><time>2014-09-24T09:41:37Z</time></trkpt><trkpt lat="51.8037954904" lon="-2.4096022826"><ele>12.15</ele><time>2014-09-24T09:41:38Z</time></trkpt><trkpt lat="51.8037999328" lon="-2.4096194655"><ele>11.67</ele><time>2014-09-24T09:41:39Z</time></trkpt><trkpt lat="51.8038045429" lon="-2.4096335471"><ele>10.71</ele><time>2014-09-24T09:41:41Z</time></trkpt><trkpt lat="51.8038105778" lon="-2.4096646439"><ele>12.15</ele><time>2014-09-24T09:41:44Z</time></trkpt><trkpt lat="51.8038695864" lon="-2.4099717569"><ele>11.67</ele><time>2014-09-24T09:42:01Z</time></trkpt><trkpt lat="51.8038906250" lon="-2.4100870080"><ele>11.19</ele><time>2014-09-24T09:42:09Z</time></trkpt><trkpt lat="51.8039023597" lon="-2.4101148359"><ele>12.15</ele><time>2014-09-24T09:42:11Z</time></trkpt><trkpt lat="51.8039275054" lon="-2.4102176819"><ele>10.71</ele><time>2014-09-24T09:42:17Z</time></trkpt><trkpt lat="51.8039925490" lon="-2.4105044268"><ele>10.23</ele><time>2014-09-24T09:42:34Z</time></trkpt><trkpt lat="51.8040035293" lon="-2.4105633516"><ele>11.67</ele><time>2014-09-24T09:42:37Z</time></trkpt><trkpt lat="51.8040228076" lon="-2.4106627610"><ele>10.71</ele><time>2014-09-24T09:42:43Z</time></trkpt><trkpt lat="51.8040601909" lon="-2.4109064229"><ele>11.67</ele><time>2014-09-24T09:42:55Z</time></trkpt><trkpt lat="51.8041394837" lon="-2.4111629929"><ele>10.71</ele><time>2014-09-24T09:43:13Z</time></trkpt><trkpt lat="51.8041541521" lon="-2.4112126138"><ele>8.31</ele><time>2014-09-24T09:43:29Z</time></trkpt><trkpt lat="51.8041543197" lon="-2.4112127814"><ele>8.79</ele><time>2014-09-24T09:43:30Z</time></trkpt><trkpt lat="51.8041580915" lon="-2.4112290423"><ele>10.71</ele><time>2014-09-24T09:43:42Z</time></trkpt><trkpt lat="51.8041627016" lon="-2.4112527631"><ele>7.83</ele><time>2014-09-24T09:43:44Z</time></trkpt><trkpt lat="51.8042217940" lon="-2.4115057290"><ele>12.15</ele><time>2014-09-24T09:43:57Z</time></trkpt><trkpt lat="51.8043263163" lon="-2.4117930606"><ele>12.15</ele><time>2014-09-24T09:44:15Z</time></trkpt><trkpt lat="51.8043454271" lon="-2.4118231516"><ele>10.71</ele><time>2014-09-24T09:44:18Z</time></trkpt><trkpt lat="51.8043845706" lon="-2.4119447730"><ele>9.27</ele><time>2014-09-24T09:44:26Z</time></trkpt><trkpt lat="51.8044714909" lon="-2.4121782091"><ele>12.15</ele><time>2014-09-24T09:44:42Z</time></trkpt><trkpt lat="51.8045752589" lon="-2.4124686420"><ele>10.71</ele><time>2014-09-24T09:45:01Z</time></trkpt><trkpt lat="51.8046935275" lon="-2.4127452448"><ele>11.19</ele><time>2014-09-24T09:45:19Z</time></trkpt><trkpt lat="51.8047465011" lon="-2.4129155651"><ele>9.75</ele><time>2014-09-24T09:45:30Z</time></trkpt><trkpt lat="51.8048189208" lon="-2.4130988773"><ele>9.27</ele><time>2014-09-24T09:45:43Z</time></trkpt><trkpt lat="51.8048403785" lon="-2.4131470732"><ele>10.23</ele><time>2014-09-24T09:45:59Z</time></trkpt><trkpt lat="51.8048431445" lon="-2.4131443910"><ele>7.83</ele><time>2014-09-24T09:46:17Z</time></trkpt><trkpt lat="51.8048470002" lon="-2.4131604005"><ele>10.71</ele><time>2014-09-24T09:46:19Z</time></trkpt><trkpt lat="51.8048766721" lon="-2.4132400285"><ele>9.75</ele><time>2014-09-24T09:46:23Z</time></trkpt><trkpt lat="51.8049563002" lon="-2.4134195689"><ele>10.23</ele><time>2014-09-24T09:46:32Z</time></trkpt><trkpt lat="51.8049806077" lon="-2.4134611432"><ele>11.19</ele><time>2014-09-24T09:46:36Z</time></trkpt><trkpt lat="51.8050467409" lon="-2.4135996960"><ele>9.75</ele><time>2014-09-24T09:46:54Z</time></trkpt><trkpt lat="51.8050935958" lon="-2.4137084093"><ele>10.71</ele><time>2014-09-24T09:47:11Z</time></trkpt><trkpt lat="51.8051855452" lon="-2.4139508978"><ele>9.75</ele><time>2014-09-24T09:47:29Z</time></trkpt><trkpt lat="51.8053368386" lon="-2.4142805580"><ele>11.19</ele><time>2014-09-24T09:47:49Z</time></trkpt><trkpt lat="51.8054458033" lon="-2.4145019241"><ele>11.67</ele><time>2014-09-24T09:48:05Z</time></trkpt><trkpt lat="51.8055128586" lon="-2.4146445002"><ele>7.83</ele><time>2014-09-24T09:48:17Z</time></trkpt><trkpt lat="51.8055178877" lon="-2.4146548100"><ele>9.27</ele><time>2014-09-24T09:48:36Z</time></trkpt><trkpt lat="51.8055215757" lon="-2.4146643654"><ele>11.19</ele><time>2014-09-24T09:48:45Z</time></trkpt><trkpt lat="51.8055528402" lon="-2.4147257209"><ele>12.63</ele><time>2014-09-24T09:48:49Z</time></trkpt><trkpt lat="51.8055891339" lon="-2.4147828016"><ele>11.19</ele><time>2014-09-24T09:48:53Z</time></trkpt><trkpt lat="51.8057017028" lon="-2.4150197580"><ele>10.23</ele><time>2014-09-24T09:49:09Z</time></trkpt><trkpt lat="51.8058552593" lon="-2.4152635876"><ele>9.75</ele><time>2014-09-24T09:49:28Z</time></trkpt><trkpt lat="51.8060244899" lon="-2.4155099317"><ele>10.23</ele><time>2014-09-24T09:49:47Z</time></trkpt><trkpt lat="51.8061644677" lon="-2.4157421943"><ele>10.23</ele><time>2014-09-24T09:50:05Z</time></trkpt><trkpt lat="51.8062132504" lon="-2.4158152845"><ele>8.79</ele><time>2014-09-24T09:50:24Z</time></trkpt><trkpt lat="51.8062623683" lon="-2.4158966728"><ele>12.15</ele><time>2014-09-24T09:50:36Z</time></trkpt><trkpt lat="51.8063333631" lon="-2.4160125945"><ele>8.79</ele><time>2014-09-24T09:50:49Z</time></trkpt><trkpt lat="51.8063442595" lon="-2.4160251673"><ele>12.15</ele><time>2014-09-24T09:50:53Z</time></trkpt><trkpt lat="51.8063765299" lon="-2.4160662387"><ele>11.67</ele><time>2014-09-24T09:50:57Z</time></trkpt><trkpt lat="51.8065688107" lon="-2.4162886944"><ele>10.23</ele><time>2014-09-24T09:51:16Z</time></trkpt><trkpt lat="51.8066974729" lon="-2.4164166860"><ele>10.71</ele><time>2014-09-24T09:51:28Z</time></trkpt><trkpt lat="51.8068583217" lon="-2.4165997468"><ele>10.23</ele><time>2014-09-24T09:51:46Z</time></trkpt><trkpt lat="51.8069656100" lon="-2.4167151656"><ele>9.75</ele><time>2014-09-24T09:51:57Z</time></trkpt><trkpt lat="51.8070811965" lon="-2.4168255553"><ele>11.19</ele><time>2014-09-24T09:52:10Z</time></trkpt><trkpt lat="51.8071348406" lon="-2.4168885872"><ele>11.19</ele><time>2014-09-24T09:52:16Z</time></trkpt><trkpt lat="51.8071798515" lon="-2.4169236235"><ele>10.23</ele><time>2014-09-24T09:52:21Z</time></trkpt><trkpt lat="51.8072211742" lon="-2.4169681314"><ele>8.79</ele><time>2014-09-24T09:52:38Z</time></trkpt><trkpt lat="51.8072208390" lon="-2.4169501942"><ele>9.27</ele><time>2014-09-24T09:52:58Z</time></trkpt><trkpt lat="51.8072224315" lon="-2.4169462547"><ele>10.71</ele><time>2014-09-24T09:53:18Z</time></trkpt><trkpt lat="51.8072269578" lon="-2.4169594981"><ele>7.35</ele><time>2014-09-24T09:53:20Z</time></trkpt><trkpt lat="51.8072350882" lon="-2.4169701431"><ele>9.27</ele><time>2014-09-24T09:53:21Z</time></trkpt><trkpt lat="51.8072559591" lon="-2.4169874936"><ele>10.71</ele><time>2014-09-24T09:53:23Z</time></trkpt><trkpt lat="51.8074045703" lon="-2.4171418045"><ele>9.75</ele><time>2014-09-24T09:53:39Z</time></trkpt><trkpt lat="51.8075863738" lon="-2.4173372705"><ele>10.23</ele><time>2014-09-24T09:53:57Z</time></trkpt><trkpt lat="51.8077457137" lon="-2.4175142962"><ele>9.27</ele><time>2014-09-24T09:54:14Z</time></trkpt><trkpt lat="51.8078100029" lon="-2.4175693654"><ele>9.75</ele><time>2014-09-24T09:54:21Z</time></trkpt><trkpt lat="51.8079762999" lon="-2.4177183956"><ele>10.71</ele><time>2014-09-24T09:54:36Z</time></trkpt><trkpt lat="51.8081529904" lon="-2.4179043900"><ele>9.75</ele><time>2014-09-24T09:54:55Z</time></trkpt><trkpt lat="51.8081813212" lon="-2.4179395940"><ele>10.71</ele><time>2014-09-24T09:54:58Z</time></trkpt><trkpt lat="51.8082459457" lon="-2.4180070683"><ele>9.75</ele><time>2014-09-24T09:55:05Z</time></trkpt><trkpt lat="51.8084145896" lon="-2.4181728624"><ele>9.27</ele><time>2014-09-24T09:55:23Z</time></trkpt><trkpt lat="51.8085977342" lon="-2.4183648080"><ele>10.23</ele><time>2014-09-24T09:55:42Z</time></trkpt><trkpt lat="51.8088005763" lon="-2.4185574241"><ele>10.71</ele><time>2014-09-24T09:56:01Z</time></trkpt><trkpt lat="51.8088634405" lon="-2.4186067935"><ele>11.19</ele><time>2014-09-24T09:56:08Z</time></trkpt><trkpt lat="51.8090381194" lon="-2.4187599309"><ele>10.23</ele><time>2014-09-24T09:56:25Z</time></trkpt><trkpt lat="51.8092369381" lon="-2.4189375434"><ele>9.75</ele><time>2014-09-24T09:56:45Z</time></trkpt><trkpt lat="51.8094172329" lon="-2.4191024993"><ele>9.75</ele><time>2014-09-24T09:57:04Z</time></trkpt><trkpt lat="51.8096239306" lon="-2.4192577321"><ele>10.23</ele><time>2014-09-24T09:57:25Z</time></trkpt><trkpt lat="51.8097216636" lon="-2.4193208478"><ele>8.79</ele><time>2014-09-24T09:57:35Z</time></trkpt><trkpt lat="51.8099369109" lon="-2.4194687884"><ele>10.71</ele><time>2014-09-24T09:57:55Z</time></trkpt><trkpt lat="51.8101441953" lon="-2.4195914157"><ele>9.75</ele><time>2014-09-24T09:58:14Z</time></trkpt><trkpt lat="51.8101610430" lon="-2.4195928406"><ele>8.79</ele><time>2014-09-24T09:58:17Z</time></trkpt><trkpt lat="51.8101635575" lon="-2.4195841234"><ele>9.27</ele><time>2014-09-24T09:58:38Z</time></trkpt><trkpt lat="51.8101731129" lon="-2.4195803516"><ele>10.71</ele><time>2014-09-24T09:59:00Z</time></trkpt><trkpt lat="51.8102422636" lon="-2.4196271226"><ele>10.71</ele><time>2014-09-24T09:59:16Z</time></trkpt><trkpt lat="51.8102614582" lon="-2.4196394440"><ele>10.23</ele><time>2014-09-24T09:59:18Z</time></trkpt><trkpt lat="51.8103141803" lon="-2.4196764920"><ele>9.75</ele><time>2014-09-24T09:59:23Z</time></trkpt><trkpt lat="51.8105110712" lon="-2.4197950121"><ele>10.23</ele><time>2014-09-24T09:59:39Z</time></trkpt><trkpt lat="51.8107269052" lon="-2.4199182261"><ele>10.23</ele><time>2014-09-24T09:59:56Z</time></trkpt><trkpt lat="51.8109765183" lon="-2.4200555217"><ele>10.23</ele><time>2014-09-24T10:00:17Z</time></trkpt><trkpt lat="51.8111744151" lon="-2.4201642349"><ele>9.75</ele><time>2014-09-24T10:00:35Z</time></trkpt><trkpt lat="51.8113906682" lon="-2.4202976748"><ele>10.71</ele><time>2014-09-24T10:00:53Z</time></trkpt><trkpt lat="51.8115870561" lon="-2.4204224814"><ele>9.75</ele><time>2014-09-24T10:01:11Z</time></trkpt><trkpt lat="51.8117301352" lon="-2.4205503892"><ele>11.19</ele><time>2014-09-24T10:01:26Z</time></trkpt><trkpt lat="51.8118536007" lon="-2.4206807278"><ele>9.75</ele><time>2014-09-24T10:01:39Z</time></trkpt><trkpt lat="51.8119699415" lon="-2.4207780417"><ele>9.27</ele><time>2014-09-24T10:01:49Z</time></trkpt><trkpt lat="51.8119881302" lon="-2.4208024330"><ele>9.27</ele><time>2014-09-24T10:01:51Z</time></trkpt><trkpt lat="51.8120437022" lon="-2.4208549038"><ele>9.27</ele><time>2014-09-24T10:01:56Z</time></trkpt><trkpt lat="51.8120811693" lon="-2.4209014233"><ele>10.23</ele><time>2014-09-24T10:02:00Z</time></trkpt><trkpt lat="51.8122327980" lon="-2.4210486095"><ele>10.71</ele><time>2014-09-24T10:02:15Z</time></trkpt><trkpt lat="51.8123695906" lon="-2.4212199356"><ele>9.27</ele><time>2014-09-24T10:02:30Z</time></trkpt><trkpt lat="51.8124516495" lon="-2.4213494360"><ele>9.27</ele><time>2014-09-24T10:02:49Z</time></trkpt><trkpt lat="51.8124583550" lon="-2.4213289842"><ele>9.27</ele><time>2014-09-24T10:03:08Z</time></trkpt><trkpt lat="51.8124624621" lon="-2.4213306606"><ele>9.27</ele><time>2014-09-24T10:03:31Z</time></trkpt><trkpt lat="51.8124804832" lon="-2.4213411380"><ele>9.27</ele><time>2014-09-24T10:03:44Z</time></trkpt><trkpt lat="51.8125037849" lon="-2.4213622604"><ele>9.27</ele><time>2014-09-24T10:03:47Z</time></trkpt><trkpt lat="51.8126634602" lon="-2.4215351790"><ele>9.75</ele><time>2014-09-24T10:04:04Z</time></trkpt><trkpt lat="51.8128324393" lon="-2.4217385240"><ele>10.23</ele><time>2014-09-24T10:04:23Z</time></trkpt><trkpt lat="51.8130184337" lon="-2.4219328165"><ele>9.27</ele><time>2014-09-24T10:04:42Z</time></trkpt><trkpt lat="51.8131685536" lon="-2.4220933300"><ele>9.27</ele><time>2014-09-24T10:04:57Z</time></trkpt><trkpt lat="51.8132043444" lon="-2.4221532606"><ele>8.79</ele><time>2014-09-24T10:05:13Z</time></trkpt><trkpt lat="51.8132306635" lon="-2.4221656658"><ele>9.27</ele><time>2014-09-24T10:05:35Z</time></trkpt><trkpt lat="51.8132791948" lon="-2.4222582858"><ele>9.27</ele><time>2014-09-24T10:05:58Z</time></trkpt><trkpt lat="51.8133316655" lon="-2.4223100860"><ele>8.79</ele><time>2014-09-24T10:06:15Z</time></trkpt><trkpt lat="51.8133434001" lon="-2.4223354831"><ele>9.27</ele><time>2014-09-24T10:06:47Z</time></trkpt><trkpt lat="51.8133713957" lon="-2.4224011134"><ele>9.75</ele><time>2014-09-24T10:06:51Z</time></trkpt><trkpt lat="51.8134277221" lon="-2.4224706832"><ele>8.79</ele><time>2014-09-24T10:07:04Z</time></trkpt><trkpt lat="51.8134697992" lon="-2.4225329608"><ele>9.27</ele><time>2014-09-24T10:07:20Z</time></trkpt><trkpt lat="51.8136279657" lon="-2.4228394870"><ele>9.27</ele><time>2014-09-24T10:07:39Z</time></trkpt><trkpt lat="51.8138110265" lon="-2.4231194425"><ele>9.27</ele><time>2014-09-24T10:07:59Z</time></trkpt><trkpt lat="51.8139516748" lon="-2.4233625177"><ele>10.23</ele><time>2014-09-24T10:08:17Z</time></trkpt><trkpt lat="51.8139839452" lon="-2.4233924411"><ele>8.79</ele><time>2014-09-24T10:08:31Z</time></trkpt><trkpt lat="51.8139908183" lon="-2.4233904295"><ele>9.27</ele><time>2014-09-24T10:08:54Z</time></trkpt><trkpt lat="51.8139982782" lon="-2.4233889207"><ele>8.79</ele><time>2014-09-24T10:09:23Z</time></trkpt><trkpt lat="51.8139952607" lon="-2.4233822152"><ele>8.79</ele><time>2014-09-24T10:09:49Z</time></trkpt><trkpt lat="51.8139978591" lon="-2.4233947881"><ele>9.75</ele><time>2014-09-24T10:10:20Z</time></trkpt><trkpt lat="51.8140339851" lon="-2.4234876595"><ele>8.79</ele><time>2014-09-24T10:10:27Z</time></trkpt><trkpt lat="51.8140634894" lon="-2.4235708080"><ele>9.75</ele><time>2014-09-24T10:10:41Z</time></trkpt><trkpt lat="51.8141124398" lon="-2.4236732349"><ele>9.27</ele><time>2014-09-24T10:10:52Z</time></trkpt><trkpt lat="51.8141269404" lon="-2.4237313215"><ele>10.71</ele><time>2014-09-24T10:10:55Z</time></trkpt><trkpt lat="51.8141449615" lon="-2.4237920903"><ele>9.75</ele><time>2014-09-24T10:10:59Z</time></trkpt><trkpt lat="51.8142035510" lon="-2.4240568746"><ele>9.27</ele><time>2014-09-24T10:11:11Z</time></trkpt><trkpt lat="51.8142141122" lon="-2.4241132010"><ele>9.27</ele><time>2014-09-24T10:11:14Z</time></trkpt><trkpt lat="51.8142327201" lon="-2.4243307114"><ele>10.23</ele><time>2014-09-24T10:11:25Z</time></trkpt><trkpt lat="51.8142411858" lon="-2.4245367385"><ele>9.27</ele><time>2014-09-24T10:11:36Z</time></trkpt><trkpt lat="51.8142419402" lon="-2.4246546719"><ele>8.31</ele><time>2014-09-24T10:11:42Z</time></trkpt><trkpt lat="51.8142261822" lon="-2.4249127507"><ele>10.23</ele><time>2014-09-24T10:11:55Z</time></trkpt><trkpt lat="51.8142214883" lon="-2.4250728451"><ele>8.79</ele><time>2014-09-24T10:12:03Z</time></trkpt><trkpt lat="51.8142000306" lon="-2.4252942950"><ele>9.27</ele><time>2014-09-24T10:12:15Z</time></trkpt><trkpt lat="51.8141613901" lon="-2.4255258869"><ele>9.75</ele><time>2014-09-24T10:12:28Z</time></trkpt><trkpt lat="51.8141037226" lon="-2.4257900007"><ele>9.27</ele><time>2014-09-24T10:12:41Z</time></trkpt><trkpt lat="51.8140773196" lon="-2.4258998875"><ele>9.27</ele><time>2014-09-24T10:12:47Z</time></trkpt><trkpt lat="51.8140212446" lon="-2.4261193257"><ele>8.79</ele><time>2014-09-24T10:13:00Z</time></trkpt><trkpt lat="51.8139594700" lon="-2.4263323937"><ele>9.27</ele><time>2014-09-24T10:13:12Z</time></trkpt><trkpt lat="51.8138913251" lon="-2.4265565258"><ele>9.27</ele><time>2014-09-24T10:13:25Z</time></trkpt><trkpt lat="51.8138207495" lon="-2.4267942365"><ele>9.27</ele><time>2014-09-24T10:13:38Z</time></trkpt><trkpt lat="51.8137445580" lon="-2.4270133395"><ele>10.23</ele><time>2014-09-24T10:13:51Z</time></trkpt><trkpt lat="51.8136638403" lon="-2.4272207916"><ele>8.79</ele><time>2014-09-24T10:14:04Z</time></trkpt><trkpt lat="51.8135911692" lon="-2.4274139944"><ele>8.79</ele><time>2014-09-24T10:14:16Z</time></trkpt><trkpt lat="51.8135139719" lon="-2.4276076164"><ele>9.27</ele><time>2014-09-24T10:14:29Z</time></trkpt><trkpt lat="51.8134890776" lon="-2.4276701454"><ele>9.75</ele><time>2014-09-24T10:14:33Z</time></trkpt><trkpt lat="51.8134612497" lon="-2.4277253821"><ele>9.75</ele><time>2014-09-24T10:14:37Z</time></trkpt><trkpt lat="51.8134467490" lon="-2.4277543835"><ele>9.27</ele><time>2014-09-24T10:14:39Z</time></trkpt><trkpt lat="51.8133560568" lon="-2.4279762525"><ele>10.71</ele><time>2014-09-24T10:14:52Z</time></trkpt><trkpt lat="51.8132476788" lon="-2.4282499216"><ele>8.79</ele><time>2014-09-24T10:15:06Z</time></trkpt><trkpt lat="51.8131886702" lon="-2.4283939227"><ele>9.27</ele><time>2014-09-24T10:15:15Z</time></trkpt><trkpt lat="51.8131657038" lon="-2.4284569547"><ele>9.75</ele><time>2014-09-24T10:15:22Z</time></trkpt><trkpt lat="51.8131585792" lon="-2.4284964334"><ele>9.27</ele><time>2014-09-24T10:15:34Z</time></trkpt><trkpt lat="51.8131450843" lon="-2.4285276141"><ele>9.27</ele><time>2014-09-24T10:15:36Z</time></trkpt><trkpt lat="51.8130499497" lon="-2.4287414365"><ele>9.75</ele><time>2014-09-24T10:15:49Z</time></trkpt><trkpt lat="51.8129547313" lon="-2.4289397523"><ele>9.75</ele><time>2014-09-24T10:16:02Z</time></trkpt><trkpt lat="51.8128576688" lon="-2.4291544128"><ele>9.75</ele><time>2014-09-24T10:16:16Z</time></trkpt><trkpt lat="51.8127467763" lon="-2.4293703306"><ele>10.23</ele><time>2014-09-24T10:16:31Z</time></trkpt><trkpt lat="51.8127375562" lon="-2.4293912016"><ele>9.75</ele><time>2014-09-24T10:16:32Z</time></trkpt><trkpt lat="51.8126349617" lon="-2.4296244700"><ele>9.75</ele><time>2014-09-24T10:16:47Z</time></trkpt><trkpt lat="51.8125513103" lon="-2.4297827203"><ele>10.71</ele><time>2014-09-24T10:17:00Z</time></trkpt><trkpt lat="51.8124680780" lon="-2.4299546331"><ele>9.27</ele><time>2014-09-24T10:17:11Z</time></trkpt><trkpt lat="51.8123826664" lon="-2.4301288091"><ele>9.75</ele><time>2014-09-24T10:17:23Z</time></trkpt><trkpt lat="51.8122763000" lon="-2.4303138815"><ele>9.27</ele><time>2014-09-24T10:17:37Z</time></trkpt><trkpt lat="51.8121688440" lon="-2.4304489139"><ele>9.75</ele><time>2014-09-24T10:17:49Z</time></trkpt><trkpt lat="51.8120649923" lon="-2.4306258559"><ele>8.31</ele><time>2014-09-24T10:18:03Z</time></trkpt><trkpt lat="51.8120406847" lon="-2.4306638259"><ele>9.27</ele><time>2014-09-24T10:18:06Z</time></trkpt><trkpt lat="51.8119222485" lon="-2.4308540951"><ele>10.71</ele><time>2014-09-24T10:18:19Z</time></trkpt><trkpt lat="51.8118553609" lon="-2.4309027102"><ele>9.75</ele><time>2014-09-24T10:18:34Z</time></trkpt><trkpt lat="51.8118336517" lon="-2.4309065659"><ele>9.75</ele><time>2014-09-24T10:18:47Z</time></trkpt><trkpt lat="51.8118323106" lon="-2.4309194740"><ele>10.71</ele><time>2014-09-24T10:18:48Z</time></trkpt><trkpt lat="51.8118252698" lon="-2.4309653230"><ele>11.19</ele><time>2014-09-24T10:18:52Z</time></trkpt><trkpt lat="51.8118012138" lon="-2.4310144410"><ele>9.75</ele><time>2014-09-24T10:18:55Z</time></trkpt><trkpt lat="51.8116929196" lon="-2.4311702605"><ele>10.23</ele><time>2014-09-24T10:19:07Z</time></trkpt><trkpt lat="51.8116912432" lon="-2.4311853480"><ele>9.75</ele><time>2014-09-24T10:19:36Z</time></trkpt><trkpt lat="51.8116820231" lon="-2.4312083144"><ele>10.23</ele><time>2014-09-24T10:19:40Z</time></trkpt><trkpt lat="51.8116552010" lon="-2.4312331248"><ele>9.75</ele><time>2014-09-24T10:19:43Z</time></trkpt><trkpt lat="51.8116098549" lon="-2.4312937260"><ele>10.23</ele><time>2014-09-24T10:19:47Z</time></trkpt><trkpt lat="51.8115209229" lon="-2.4314143416"><ele>10.23</ele><time>2014-09-24T10:20:03Z</time></trkpt><trkpt lat="51.8115122057" lon="-2.4314309377"><ele>9.75</ele><time>2014-09-24T10:20:18Z</time></trkpt><trkpt lat="51.8114937656" lon="-2.4314534850"><ele>10.23</ele><time>2014-09-24T10:20:20Z</time></trkpt><trkpt lat="51.8114135507" lon="-2.4315616954"><ele>5.42</ele><time>2014-09-24T10:20:33Z</time></trkpt><trkpt lat="51.8114136346" lon="-2.4315621145"><ele>10.23</ele><time>2014-09-24T10:20:34Z</time></trkpt><trkpt lat="51.8114138022" lon="-2.4315619469"><ele>9.75</ele><time>2014-09-24T10:20:35Z</time></trkpt><trkpt lat="51.8114050012" lon="-2.4315823987"><ele>10.23</ele><time>2014-09-24T10:20:53Z</time></trkpt><trkpt lat="51.8113097828" lon="-2.4317492824"><ele>9.75</ele><time>2014-09-24T10:21:06Z</time></trkpt><trkpt lat="51.8111494370" lon="-2.4319737498"><ele>9.75</ele><time>2014-09-24T10:21:22Z</time></trkpt><trkpt lat="51.8111032527" lon="-2.4320209399"><ele>9.75</ele><time>2014-09-24T10:21:27Z</time></trkpt><trkpt lat="51.8110807892" lon="-2.4320445769"><ele>10.71</ele><time>2014-09-24T10:21:29Z</time></trkpt><trkpt lat="51.8110414781" lon="-2.4321038369"><ele>10.23</ele><time>2014-09-24T10:21:33Z</time></trkpt><trkpt lat="51.8109110557" lon="-2.4322854728"><ele>9.75</ele><time>2014-09-24T10:21:48Z</time></trkpt><trkpt lat="51.8108514603" lon="-2.4323774222"><ele>9.27</ele><time>2014-09-24T10:21:55Z</time></trkpt><trkpt lat="51.8108260632" lon="-2.4324018974"><ele>9.75</ele><time>2014-09-24T10:21:58Z</time></trkpt><trkpt lat="51.8106800504" lon="-2.4325890653"><ele>10.23</ele><time>2014-09-24T10:22:12Z</time></trkpt><trkpt lat="51.8105637934" lon="-2.4327539373"><ele>10.23</ele><time>2014-09-24T10:22:26Z</time></trkpt><trkpt lat="51.8105206266" lon="-2.4328278657"><ele>9.75</ele><time>2014-09-24T10:22:32Z</time></trkpt><trkpt lat="51.8103663996" lon="-2.4330186378"><ele>10.23</ele><time>2014-09-24T10:22:47Z</time></trkpt><trkpt lat="51.8102433532" lon="-2.4331885390"><ele>10.23</ele><time>2014-09-24T10:23:01Z</time></trkpt><trkpt lat="51.8101221509" lon="-2.4333564285"><ele>10.23</ele><time>2014-09-24T10:23:14Z</time></trkpt><trkpt lat="51.8100119289" lon="-2.4335063808"><ele>11.19</ele><time>2014-09-24T10:23:27Z</time></trkpt><trkpt lat="51.8098696042" lon="-2.4336834066"><ele>10.23</ele><time>2014-09-24T10:23:41Z</time></trkpt><trkpt lat="51.8097183108" lon="-2.4338544812"><ele>10.71</ele><time>2014-09-24T10:23:56Z</time></trkpt><trkpt lat="51.8095927499" lon="-2.4340042658"><ele>11.19</ele><time>2014-09-24T10:24:09Z</time></trkpt><trkpt lat="51.8094655126" lon="-2.4341492727"><ele>11.19</ele><time>2014-09-24T10:24:22Z</time></trkpt><trkpt lat="51.8093400355" lon="-2.4343044218"><ele>11.19</ele><time>2014-09-24T10:24:35Z</time></trkpt><trkpt lat="51.8093345873" lon="-2.4343117140"><ele>8.31</ele><time>2014-09-24T10:24:38Z</time></trkpt><trkpt lat="51.8093385268" lon="-2.4343055114"><ele>7.83</ele><time>2014-09-24T10:24:41Z</time></trkpt><trkpt lat="51.8093106151" lon="-2.4343159888"><ele>10.23</ele><time>2014-09-24T10:24:44Z</time></trkpt><trkpt lat="51.8092930131" lon="-2.4343392067"><ele>9.75</ele><time>2014-09-24T10:24:46Z</time></trkpt><trkpt lat="51.8091471680" lon="-2.4345071800"><ele>11.67</ele><time>2014-09-24T10:25:01Z</time></trkpt><trkpt lat="51.8090198468" lon="-2.4346353393"><ele>11.19</ele><time>2014-09-24T10:25:13Z</time></trkpt><trkpt lat="51.8088783603" lon="-2.4348142929"><ele>10.71</ele><time>2014-09-24T10:25:27Z</time></trkpt><trkpt lat="51.8088179268" lon="-2.4348705355"><ele>10.23</ele><time>2014-09-24T10:25:34Z</time></trkpt><trkpt lat="51.8087040167" lon="-2.4349902291"><ele>10.71</ele><time>2014-09-24T10:25:45Z</time></trkpt><trkpt lat="51.8085612729" lon="-2.4351258483"><ele>11.19</ele><time>2014-09-24T10:25:59Z</time></trkpt><trkpt lat="51.8084313534" lon="-2.4352592044"><ele>10.23</ele><time>2014-09-24T10:26:12Z</time></trkpt><trkpt lat="51.8082841672" lon="-2.4354025349"><ele>10.71</ele><time>2014-09-24T10:26:26Z</time></trkpt><trkpt lat="51.8081488833" lon="-2.4355419260"><ele>11.19</ele><time>2014-09-24T10:26:40Z</time></trkpt><trkpt lat="51.8080301955" lon="-2.4356630445"><ele>10.71</ele><time>2014-09-24T10:26:53Z</time></trkpt><trkpt lat="51.8078736216" lon="-2.4358297605"><ele>10.71</ele><time>2014-09-24T10:27:07Z</time></trkpt><trkpt lat="51.8077187240" lon="-2.4359756056"><ele>11.67</ele><time>2014-09-24T10:27:22Z</time></trkpt><trkpt lat="51.8076116871" lon="-2.4360849895"><ele>11.19</ele><time>2014-09-24T10:27:34Z</time></trkpt><trkpt lat="51.8074863777" lon="-2.4362234585"><ele>11.19</ele><time>2014-09-24T10:27:47Z</time></trkpt><trkpt lat="51.8073484115" lon="-2.4363432359"><ele>10.71</ele><time>2014-09-24T10:28:00Z</time></trkpt><trkpt lat="51.8072288018" lon="-2.4364597443"><ele>10.23</ele><time>2014-09-24T10:28:12Z</time></trkpt><trkpt lat="51.8071395345" lon="-2.4365442339"><ele>11.19</ele><time>2014-09-24T10:28:22Z</time></trkpt><trkpt lat="51.8071107008" lon="-2.4365965370"><ele>11.67</ele><time>2014-09-24T10:28:26Z</time></trkpt><trkpt lat="51.8070339225" lon="-2.4366613291"><ele>11.19</ele><time>2014-09-24T10:28:33Z</time></trkpt><trkpt lat="51.8070307374" lon="-2.4366739858"><ele>11.19</ele><time>2014-09-24T10:28:48Z</time></trkpt><trkpt lat="51.8070256244" lon="-2.4366745725"><ele>11.19</ele><time>2014-09-24T10:29:08Z</time></trkpt><trkpt lat="51.8069896661" lon="-2.4367042445"><ele>11.67</ele><time>2014-09-24T10:29:11Z</time></trkpt><trkpt lat="51.8069271371" lon="-2.4367721379"><ele>11.67</ele><time>2014-09-24T10:29:16Z</time></trkpt><trkpt lat="51.8069078587" lon="-2.4367881473"><ele>11.67</ele><time>2014-09-24T10:29:18Z</time></trkpt><trkpt lat="51.8067919370" lon="-2.4369027279"><ele>11.67</ele><time>2014-09-24T10:29:30Z</time></trkpt><trkpt lat="51.8066522107" lon="-2.4370419513"><ele>11.67</ele><time>2014-09-24T10:29:43Z</time></trkpt><trkpt lat="51.8066165037" lon="-2.4370697793"><ele>11.19</ele><time>2014-09-24T10:29:47Z</time></trkpt><trkpt lat="51.8064708263" lon="-2.4372183904"><ele>11.19</ele><time>2014-09-24T10:30:03Z</time></trkpt><trkpt lat="51.8063233048" lon="-2.4373529200"><ele>10.71</ele><time>2014-09-24T10:30:17Z</time></trkpt><trkpt lat="51.8061798904" lon="-2.4375066441"><ele>11.19</ele><time>2014-09-24T10:30:33Z</time></trkpt><trkpt lat="51.8061365560" lon="-2.4375365674"><ele>11.19</ele><time>2014-09-24T10:30:50Z</time></trkpt><trkpt lat="51.8061288446" lon="-2.4375465419"><ele>11.67</ele><time>2014-09-24T10:30:52Z</time></trkpt><trkpt lat="51.8060262501" lon="-2.4376405869"><ele>10.71</ele><time>2014-09-24T10:31:01Z</time></trkpt><trkpt lat="51.8058697600" lon="-2.4377974961"><ele>10.71</ele><time>2014-09-24T10:31:16Z</time></trkpt><trkpt lat="51.8057374097" lon="-2.4379209615"><ele>11.19</ele><time>2014-09-24T10:31:30Z</time></trkpt><trkpt lat="51.8056022935" lon="-2.4380295910"><ele>11.67</ele><time>2014-09-24T10:31:46Z</time></trkpt><trkpt lat="51.8055982701" lon="-2.4380620290"><ele>10.71</ele><time>2014-09-24T10:32:06Z</time></trkpt><trkpt lat="51.8055887148" lon="-2.4380549043"><ele>11.67</ele><time>2014-09-24T10:32:23Z</time></trkpt><trkpt lat="51.8055932410" lon="-2.4380506296"><ele>11.19</ele><time>2014-09-24T10:32:43Z</time></trkpt><trkpt lat="51.8055938277" lon="-2.4380468577"><ele>11.19</ele><time>2014-09-24T10:33:03Z</time></trkpt><trkpt lat="51.8055935763" lon="-2.4380474444"><ele>11.19</ele><time>2014-09-24T10:33:36Z</time></trkpt><trkpt lat="51.8055937439" lon="-2.4380480312"><ele>11.19</ele><time>2014-09-24T10:34:07Z</time></trkpt><trkpt lat="51.8055931572" lon="-2.4380474444"><ele>10.71</ele><time>2014-09-24T10:34:43Z</time></trkpt><trkpt lat="51.8055932410" lon="-2.4380519707"><ele>10.71</ele><time>2014-09-24T10:35:17Z</time></trkpt><trkpt lat="51.8055926543" lon="-2.4380509648"><ele>11.19</ele><time>2014-09-24T10:35:51Z</time></trkpt><trkpt lat="51.8055932410" lon="-2.4380473606"><ele>11.67</ele><time>2014-09-24T10:36:18Z</time></trkpt><trkpt lat="51.8055940792" lon="-2.4380441755"><ele>11.19</ele><time>2014-09-24T10:36:55Z</time></trkpt><trkpt lat="51.8055942468" lon="-2.4380442593"><ele>11.67</ele><time>2014-09-24T10:37:22Z</time></trkpt><trkpt lat="51.8055943307" lon="-2.4380484503"><ele>11.19</ele><time>2014-09-24T10:37:46Z</time></trkpt><trkpt lat="51.8055964261" lon="-2.4380442593"><ele>11.67</ele><time>2014-09-24T10:38:06Z</time></trkpt><trkpt lat="51.8055947497" lon="-2.4380439240"><ele>11.67</ele><time>2014-09-24T10:38:34Z</time></trkpt><trkpt lat="51.8055715319" lon="-2.4380083848"><ele>11.19</ele><time>2014-09-24T10:38:47Z</time></trkpt><trkpt lat="51.8054736312" lon="-2.4381269049"><ele>12.15</ele><time>2014-09-24T10:39:01Z</time></trkpt><trkpt lat="51.8053146265" lon="-2.4382875860"><ele>12.15</ele><time>2014-09-24T10:39:16Z</time></trkpt><trkpt lat="51.8051720504" lon="-2.4384234566"><ele>12.15</ele><time>2014-09-24T10:39:30Z</time></trkpt><trkpt lat="51.8051019777" lon="-2.4384921044"><ele>11.67</ele><time>2014-09-24T10:39:38Z</time></trkpt><trkpt lat="51.8049542885" lon="-2.4386449903"><ele>11.67</ele><time>2014-09-24T10:39:54Z</time></trkpt><trkpt lat="51.8048078567" lon="-2.4387883209"><ele>11.67</ele><time>2014-09-24T10:40:08Z</time></trkpt><trkpt lat="51.8046333455" lon="-2.4389422964"><ele>11.67</ele><time>2014-09-24T10:40:24Z</time></trkpt><trkpt lat="51.8044963852" lon="-2.4390619900"><ele>11.67</ele><time>2014-09-24T10:40:37Z</time></trkpt><trkpt lat="51.8043386377" lon="-2.4392217491"><ele>11.19</ele><time>2014-09-24T10:40:53Z</time></trkpt><trkpt lat="51.8042040244" lon="-2.4393561110"><ele>11.67</ele><time>2014-09-24T10:41:06Z</time></trkpt><trkpt lat="51.8040519767" lon="-2.4395136908"><ele>11.67</ele><time>2014-09-24T10:41:21Z</time></trkpt><trkpt lat="51.8039125856" lon="-2.4396434426"><ele>11.19</ele><time>2014-09-24T10:41:35Z</time></trkpt><trkpt lat="51.8037926406" lon="-2.4397711828"><ele>11.19</ele><time>2014-09-24T10:41:49Z</time></trkpt><trkpt lat="51.8036597874" lon="-2.4399094004"><ele>10.71</ele><time>2014-09-24T10:42:03Z</time></trkpt><trkpt lat="51.8035238329" lon="-2.4400447682"><ele>11.19</ele><time>2014-09-24T10:42:17Z</time></trkpt><trkpt lat="51.8035152834" lon="-2.4400473665"><ele>11.19</ele><time>2014-09-24T10:42:38Z</time></trkpt><trkpt lat="51.8035108410" lon="-2.4400498811"><ele>11.67</ele><time>2014-09-24T10:43:05Z</time></trkpt><trkpt lat="51.8035068177" lon="-2.4400500488"><ele>10.71</ele><time>2014-09-24T10:43:26Z</time></trkpt><trkpt lat="51.8035068177" lon="-2.4400499649"><ele>5.91</ele><time>2014-09-24T10:43:27Z</time></trkpt><trkpt lat="51.8035070691" lon="-2.4400500488"><ele>18.88</ele><time>2014-09-24T10:43:28Z</time></trkpt><trkpt lat="51.8035071529" lon="-2.4400504678"><ele>11.67</ele><time>2014-09-24T10:43:29Z</time></trkpt><trkpt lat="51.8034578674" lon="-2.4401046149"><ele>10.71</ele><time>2014-09-24T10:43:43Z</time></trkpt><trkpt lat="51.8034022953" lon="-2.4401586782"><ele>11.19</ele><time>2014-09-24T10:43:57Z</time></trkpt><trkpt lat="51.8033021316" lon="-2.4402546510"><ele>11.19</ele><time>2014-09-24T10:44:10Z</time></trkpt><trkpt lat="51.8031569570" lon="-2.4403978139"><ele>10.71</ele><time>2014-09-24T10:44:24Z</time></trkpt><trkpt lat="51.8030298874" lon="-2.4405105505"><ele>11.19</ele><time>2014-09-24T10:44:36Z</time></trkpt><trkpt lat="51.8028925918" lon="-2.4406387098"><ele>11.19</ele><time>2014-09-24T10:44:50Z</time></trkpt><trkpt lat="51.8028647639" lon="-2.4406599160"><ele>10.71</ele><time>2014-09-24T10:44:53Z</time></trkpt><trkpt lat="51.8027609121" lon="-2.4407748319"><ele>11.67</ele><time>2014-09-24T10:45:04Z</time></trkpt><trkpt lat="51.8026071042" lon="-2.4409086071"><ele>11.19</ele><time>2014-09-24T10:45:18Z</time></trkpt><trkpt lat="51.8024931103" lon="-2.4410224333"><ele>10.71</ele><time>2014-09-24T10:45:30Z</time></trkpt><trkpt lat="51.8024616782" lon="-2.4410632532"><ele>10.71</ele><time>2014-09-24T10:45:34Z</time></trkpt><trkpt lat="51.8024000712" lon="-2.4411127064"><ele>10.23</ele><time>2014-09-24T10:45:40Z</time></trkpt><trkpt lat="51.8023584969" lon="-2.4411515985"><ele>11.19</ele><time>2014-09-24T10:45:44Z</time></trkpt><trkpt lat="51.8022068683" lon="-2.4412961863"><ele>11.19</ele><time>2014-09-24T10:45:59Z</time></trkpt><trkpt lat="51.8020788766" lon="-2.4414306320"><ele>11.19</ele><time>2014-09-24T10:46:13Z</time></trkpt><trkpt lat="51.8019458558" lon="-2.4415577855"><ele>10.71</ele><time>2014-09-24T10:46:26Z</time></trkpt><trkpt lat="51.8018012680" lon="-2.4416960869"><ele>10.71</ele><time>2014-09-24T10:46:41Z</time></trkpt><trkpt lat="51.8017988373" lon="-2.4417041335"><ele>11.19</ele><time>2014-09-24T10:46:56Z</time></trkpt><trkpt lat="51.8016564287" lon="-2.4418182112"><ele>11.19</ele><time>2014-09-24T10:47:10Z</time></trkpt><trkpt lat="51.8015151098" lon="-2.4419673253"><ele>11.19</ele><time>2014-09-24T10:47:24Z</time></trkpt><trkpt lat="51.8013785686" lon="-2.4420951493"><ele>10.71</ele><time>2014-09-24T10:47:38Z</time></trkpt><trkpt lat="51.8012436200" lon="-2.4422165193"><ele>11.19</ele><time>2014-09-24T10:47:50Z</time></trkpt><trkpt lat="51.8012045603" lon="-2.4422500469"><ele>10.71</ele><time>2014-09-24T10:47:54Z</time></trkpt><trkpt lat="51.8010662589" lon="-2.4423872586"><ele>11.19</ele><time>2014-09-24T10:48:08Z</time></trkpt><trkpt lat="51.8009014707" lon="-2.4425412342"><ele>11.19</ele><time>2014-09-24T10:48:24Z</time></trkpt><trkpt lat="51.8007606547" lon="-2.4426849000"><ele>11.19</ele><time>2014-09-24T10:48:39Z</time></trkpt><trkpt lat="51.8006238621" lon="-2.4427972175"><ele>11.19</ele><time>2014-09-24T10:48:52Z</time></trkpt><trkpt lat="51.8004523683" lon="-2.4429155700"><ele>11.19</ele><time>2014-09-24T10:49:08Z</time></trkpt><trkpt lat="51.8002840597" lon="-2.4429573957"><ele>10.71</ele><time>2014-09-24T10:49:22Z</time></trkpt><trkpt lat="51.8001528829" lon="-2.4430104531"><ele>11.19</ele><time>2014-09-24T10:49:37Z</time></trkpt><trkpt lat="51.8000854086" lon="-2.4430185836"><ele>10.23</ele><time>2014-09-24T10:49:51Z</time></trkpt><trkpt lat="51.8000174314" lon="-2.4430702161"><ele>10.71</ele><time>2014-09-24T10:50:08Z</time></trkpt><trkpt lat="51.7999402341" lon="-2.4431199208"><ele>11.19</ele><time>2014-09-24T10:50:16Z</time></trkpt><trkpt lat="51.7998110689" lon="-2.4432221800"><ele>11.19</ele><time>2014-09-24T10:50:29Z</time></trkpt><trkpt lat="51.7997330334" lon="-2.4432869721"><ele>10.71</ele><time>2014-09-24T10:50:37Z</time></trkpt><trkpt lat="51.7996219732" lon="-2.4433496688"><ele>10.23</ele><time>2014-09-24T10:50:51Z</time></trkpt><trkpt lat="51.7996109091" lon="-2.4433548655"><ele>11.19</ele><time>2014-09-24T10:51:09Z</time></trkpt><trkpt lat="51.7995966598" lon="-2.4433945958"><ele>11.19</ele><time>2014-09-24T10:51:27Z</time></trkpt><trkpt lat="51.7994740326" lon="-2.4435130320"><ele>10.71</ele><time>2014-09-24T10:51:39Z</time></trkpt><trkpt lat="51.7993131001" lon="-2.4436763953"><ele>10.71</ele><time>2014-09-24T10:51:55Z</time></trkpt><trkpt lat="51.7991542630" lon="-2.4438177980"><ele>11.19</ele><time>2014-09-24T10:52:10Z</time></trkpt><trkpt lat="51.7990333121" lon="-2.4439255893"><ele>10.71</ele><time>2014-09-24T10:52:23Z</time></trkpt><trkpt lat="51.7988883890" lon="-2.4440370686"><ele>10.71</ele><time>2014-09-24T10:52:37Z</time></trkpt><trkpt lat="51.7987510934" lon="-2.4441234861"><ele>10.23</ele><time>2014-09-24T10:52:50Z</time></trkpt><trkpt lat="51.7985686194" lon="-2.4442208838"><ele>11.19</ele><time>2014-09-24T10:53:05Z</time></trkpt><trkpt lat="51.7984335870" lon="-2.4443171918"><ele>11.67</ele><time>2014-09-24T10:53:22Z</time></trkpt><trkpt lat="51.7984322459" lon="-2.4443259928"><ele>11.19</ele><time>2014-09-24T10:53:51Z</time></trkpt><trkpt lat="51.7983749975" lon="-2.4443342909"><ele>11.19</ele><time>2014-09-24T10:53:56Z</time></trkpt><trkpt lat="51.7982145678" lon="-2.4444124941"><ele>11.19</ele><time>2014-09-24T10:54:10Z</time></trkpt><trkpt lat="51.7980809603" lon="-2.4444958940"><ele>11.19</ele><time>2014-09-24T10:54:23Z</time></trkpt><trkpt lat="51.7979462631" lon="-2.4445735104"><ele>11.19</ele><time>2014-09-24T10:54:35Z</time></trkpt><trkpt lat="51.7977860011" lon="-2.4446590897"><ele>11.19</ele><time>2014-09-24T10:54:48Z</time></trkpt><trkpt lat="51.7976839095" lon="-2.4447276536"><ele>11.19</ele><time>2014-09-24T10:55:02Z</time></trkpt><trkpt lat="51.7975794710" lon="-2.4447828904"><ele>11.19</ele><time>2014-09-24T10:55:19Z</time></trkpt><trkpt lat="51.7975672334" lon="-2.4447873328"><ele>10.71</ele><time>2014-09-24T10:55:41Z</time></trkpt><trkpt lat="51.7974310275" lon="-2.4448741693"><ele>10.71</ele><time>2014-09-24T10:55:54Z</time></trkpt><trkpt lat="51.7972893734" lon="-2.4449432362"><ele>10.71</ele><time>2014-09-24T10:56:06Z</time></trkpt><trkpt lat="51.7971526645" lon="-2.4450291507"><ele>11.19</ele><time>2014-09-24T10:56:19Z</time></trkpt><trkpt lat="51.7970219906" lon="-2.4451197591"><ele>10.71</ele><time>2014-09-24T10:56:31Z</time></trkpt><trkpt lat="51.7968253512" lon="-2.4452331662"><ele>11.19</ele><time>2014-09-24T10:56:47Z</time></trkpt><trkpt lat="51.7966847029" lon="-2.4453147221"><ele>11.19</ele><time>2014-09-24T10:56:59Z</time></trkpt><trkpt lat="51.7966355011" lon="-2.4453341682"><ele>10.71</ele><time>2014-09-24T10:57:03Z</time></trkpt><trkpt lat="51.7964777537" lon="-2.4454531912"><ele>10.71</ele><time>2014-09-24T10:57:17Z</time></trkpt><trkpt lat="51.7963297293" lon="-2.4455360882"><ele>10.71</ele><time>2014-09-24T10:57:30Z</time></trkpt><trkpt lat="51.7961722333" lon="-2.4456162192"><ele>10.71</ele><time>2014-09-24T10:57:44Z</time></trkpt><trkpt lat="51.7960095406" lon="-2.4456984457"><ele>10.71</ele><time>2014-09-24T10:57:59Z</time></trkpt><trkpt lat="51.7958326824" lon="-2.4457710329"><ele>11.19</ele><time>2014-09-24T10:58:15Z</time></trkpt><trkpt lat="51.7957145814" lon="-2.4458087515"><ele>10.71</ele><time>2014-09-24T10:58:30Z</time></trkpt><trkpt lat="51.7956947163" lon="-2.4458190612"><ele>11.19</ele><time>2014-09-24T10:58:42Z</time></trkpt><trkpt lat="51.7955186963" lon="-2.4458668381"><ele>11.67</ele><time>2014-09-24T10:58:56Z</time></trkpt><trkpt lat="51.7953107413" lon="-2.4458980188"><ele>11.19</ele><time>2014-09-24T10:59:12Z</time></trkpt><trkpt lat="51.7952861823" lon="-2.4459053110"><ele>11.19</ele><time>2014-09-24T10:59:29Z</time></trkpt><trkpt lat="51.7952833325" lon="-2.4459046405"><ele>10.71</ele><time>2014-09-24T10:59:43Z</time></trkpt><trkpt lat="51.7952388246" lon="-2.4459165428"><ele>11.19</ele><time>2014-09-24T10:59:47Z</time></trkpt><trkpt lat="51.7950298637" lon="-2.4459226616"><ele>11.19</ele><time>2014-09-24T11:00:04Z</time></trkpt><trkpt lat="51.7948190589" lon="-2.4459228292"><ele>11.19</ele><time>2014-09-24T11:00:21Z</time></trkpt><trkpt lat="51.7947870400" lon="-2.4459213205"><ele>10.71</ele><time>2014-09-24T11:00:24Z</time></trkpt><trkpt lat="51.7945629917" lon="-2.4458945822"><ele>11.19</ele><time>2014-09-24T11:00:44Z</time></trkpt><trkpt lat="51.7943376023" lon="-2.4458682630"><ele>11.19</ele><time>2014-09-24T11:01:04Z</time></trkpt><trkpt lat="51.7941608280" lon="-2.4458768126"><ele>11.19</ele><time>2014-09-24T11:01:21Z</time></trkpt><trkpt lat="51.7939537950" lon="-2.4457951728"><ele>11.19</ele><time>2014-09-24T11:01:39Z</time></trkpt><trkpt lat="51.7937855702" lon="-2.4457485694"><ele>11.67</ele><time>2014-09-24T11:01:55Z</time></trkpt><trkpt lat="51.7936081253" lon="-2.4456688575"><ele>11.19</ele><time>2014-09-24T11:02:11Z</time></trkpt><trkpt lat="51.7935973965" lon="-2.4456830230"><ele>11.19</ele><time>2014-09-24T11:02:22Z</time></trkpt><trkpt lat="51.7935585044" lon="-2.4456679355"><ele>11.67</ele><time>2014-09-24T11:02:26Z</time></trkpt><trkpt lat="51.7935412377" lon="-2.4456544407"><ele>12.15</ele><time>2014-09-24T11:02:28Z</time></trkpt><trkpt lat="51.7934069596" lon="-2.4456075020"><ele>10.71</ele><time>2014-09-24T11:02:40Z</time></trkpt><trkpt lat="51.7932248209" lon="-2.4455324002"><ele>10.23</ele><time>2014-09-24T11:02:57Z</time></trkpt><trkpt lat="51.7930778023" lon="-2.4454650935"><ele>11.19</ele><time>2014-09-24T11:03:10Z</time></trkpt><trkpt lat="51.7928800732" lon="-2.4453847110"><ele>10.71</ele><time>2014-09-24T11:03:28Z</time></trkpt><trkpt lat="51.7928073183" lon="-2.4453385267"><ele>11.19</ele><time>2014-09-24T11:03:35Z</time></trkpt><trkpt lat="51.7926360760" lon="-2.4452692084"><ele>10.71</ele><time>2014-09-24T11:03:50Z</time></trkpt><trkpt lat="51.7924743053" lon="-2.4451930169"><ele>11.19</ele><time>2014-09-24T11:04:04Z</time></trkpt><trkpt lat="51.7923705373" lon="-2.4451266322"><ele>11.19</ele><time>2014-09-24T11:04:14Z</time></trkpt><trkpt lat="51.7922412045" lon="-2.4450597446"><ele>11.19</ele><time>2014-09-24T11:04:27Z</time></trkpt><trkpt lat="51.7921129614" lon="-2.4449761771"><ele>10.71</ele><time>2014-09-24T11:04:39Z</time></trkpt><trkpt lat="51.7919210996" lon="-2.4448479339"><ele>10.71</ele><time>2014-09-24T11:04:56Z</time></trkpt><trkpt lat="51.7917802837" lon="-2.4447655398"><ele>11.19</ele><time>2014-09-24T11:05:10Z</time></trkpt><trkpt lat="51.7917668726" lon="-2.4447808787"><ele>10.71</ele><time>2014-09-24T11:05:28Z</time></trkpt><trkpt lat="51.7917210236" lon="-2.4447212834"><ele>10.71</ele><time>2014-09-24T11:05:43Z</time></trkpt><trkpt lat="51.7916417308" lon="-2.4446502049"><ele>11.19</ele><time>2014-09-24T11:05:51Z</time></trkpt><trkpt lat="51.7914859951" lon="-2.4445135798"><ele>10.23</ele><time>2014-09-24T11:06:06Z</time></trkpt><trkpt lat="51.7913060356" lon="-2.4443376437"><ele>10.71</ele><time>2014-09-24T11:06:24Z</time></trkpt><trkpt lat="51.7911321949" lon="-2.4441536609"><ele>10.23</ele><time>2014-09-24T11:06:43Z</time></trkpt><trkpt lat="51.7910569254" lon="-2.4440721888"><ele>11.19</ele><time>2014-09-24T11:07:00Z</time></trkpt><trkpt lat="51.7909763753" lon="-2.4440348055"><ele>10.71</ele><time>2014-09-24T11:07:15Z</time></trkpt><trkpt lat="51.7908255849" lon="-2.4438367411"><ele>9.75</ele><time>2014-09-24T11:07:34Z</time></trkpt><trkpt lat="51.7906779796" lon="-2.4436282832"><ele>10.23</ele><time>2014-09-24T11:07:52Z</time></trkpt><trkpt lat="51.7906048056" lon="-2.4435055722"><ele>10.23</ele><time>2014-09-24T11:08:09Z</time></trkpt><trkpt lat="51.7904695217" lon="-2.4433294684"><ele>10.23</ele><time>2014-09-24T11:08:27Z</time></trkpt><trkpt lat="51.7903163005" lon="-2.4431148916"><ele>10.71</ele><time>2014-09-24T11:08:45Z</time></trkpt><trkpt lat="51.7901810165" lon="-2.4428670388"><ele>11.19</ele><time>2014-09-24T11:09:05Z</time></trkpt><trkpt lat="51.7901833635" lon="-2.4428626802"><ele>10.71</ele><time>2014-09-24T11:09:10Z</time></trkpt><trkpt lat="51.7901469022" lon="-2.4428081140"><ele>10.23</ele><time>2014-09-24T11:09:14Z</time></trkpt><trkpt lat="51.7899919208" lon="-2.4425229616"><ele>10.23</ele><time>2014-09-24T11:09:33Z</time></trkpt><trkpt lat="51.7899272963" lon="-2.4424238037"><ele>10.23</ele><time>2014-09-24T11:09:41Z</time></trkpt><trkpt lat="51.7898235284" lon="-2.4422274157"><ele>10.71</ele><time>2014-09-24T11:09:57Z</time></trkpt><trkpt lat="51.7897656094" lon="-2.4421109911"><ele>9.75</ele><time>2014-09-24T11:10:23Z</time></trkpt><trkpt lat="51.7896267213" lon="-2.4418794829"><ele>9.75</ele><time>2014-09-24T11:10:40Z</time></trkpt><trkpt lat="51.7895056028" lon="-2.4416441191"><ele>9.75</ele><time>2014-09-24T11:10:57Z</time></trkpt><trkpt lat="51.7895012442" lon="-2.4416283611"><ele>10.23</ele><time>2014-09-24T11:10:58Z</time></trkpt><trkpt lat="51.7894742545" lon="-2.4415632337"><ele>10.23</ele><time>2014-09-24T11:11:13Z</time></trkpt><trkpt lat="51.7893709894" lon="-2.4412757345"><ele>10.71</ele><time>2014-09-24T11:11:30Z</time></trkpt><trkpt lat="51.7892447580" lon="-2.4409616645"><ele>10.71</ele><time>2014-09-24T11:11:50Z</time></trkpt><trkpt lat="51.7891124077" lon="-2.4406649452"><ele>10.71</ele><time>2014-09-24T11:12:10Z</time></trkpt><trkpt lat="51.7890549079" lon="-2.4405036774"><ele>10.23</ele><time>2014-09-24T11:12:21Z</time></trkpt><trkpt lat="51.7889611982" lon="-2.4402052816"><ele>10.71</ele><time>2014-09-24T11:12:39Z</time></trkpt><trkpt lat="51.7888702545" lon="-2.4399549980"><ele>10.71</ele><time>2014-09-24T11:12:55Z</time></trkpt><trkpt lat="51.7887817416" lon="-2.4397100788"><ele>10.71</ele><time>2014-09-24T11:13:11Z</time></trkpt><trkpt lat="51.7887258343" lon="-2.4395369086"><ele>11.19</ele><time>2014-09-24T11:13:27Z</time></trkpt><trkpt lat="51.7887089867" lon="-2.4395146128"><ele>11.19</ele><time>2014-09-24T11:13:39Z</time></trkpt><trkpt lat="51.7886308674" lon="-2.4391915742"><ele>11.19</ele><time>2014-09-24T11:13:56Z</time></trkpt><trkpt lat="51.7886165343" lon="-2.4391474016"><ele>11.67</ele><time>2014-09-24T11:13:59Z</time></trkpt><trkpt lat="51.7885357328" lon="-2.4388061743"><ele>10.23</ele><time>2014-09-24T11:14:18Z</time></trkpt><trkpt lat="51.7884365749" lon="-2.4385343492"><ele>10.71</ele><time>2014-09-24T11:14:37Z</time></trkpt><trkpt lat="51.7883574497" lon="-2.4381804653"><ele>11.19</ele><time>2014-09-24T11:14:58Z</time></trkpt><trkpt lat="51.7882757261" lon="-2.4379061256"><ele>11.19</ele><time>2014-09-24T11:15:15Z</time></trkpt><trkpt lat="51.7882196512" lon="-2.4376086518"><ele>11.19</ele><time>2014-09-24T11:15:33Z</time></trkpt><trkpt lat="51.7881470639" lon="-2.4373276066"><ele>11.67</ele><time>2014-09-24T11:15:50Z</time></trkpt><trkpt lat="51.7881393526" lon="-2.4372508284"><ele>10.71</ele><time>2014-09-24T11:16:02Z</time></trkpt><trkpt lat="51.7881263606" lon="-2.4372268561"><ele>11.67</ele><time>2014-09-24T11:16:17Z</time></trkpt><trkpt lat="51.7881270312" lon="-2.4372279458"><ele>11.19</ele><time>2014-09-24T11:16:26Z</time></trkpt><trkpt lat="51.7880939227" lon="-2.4370919075"><ele>10.71</ele><time>2014-09-24T11:16:34Z</time></trkpt><trkpt lat="51.7880470678" lon="-2.4368571304"><ele>10.71</ele><time>2014-09-24T11:16:48Z</time></trkpt><trkpt lat="51.7879713792" lon="-2.4366010632"><ele>10.71</ele><time>2014-09-24T11:17:04Z</time></trkpt><trkpt lat="51.7879417073" lon="-2.4364022445"><ele>10.71</ele><time>2014-09-24T11:17:18Z</time></trkpt><trkpt lat="51.7879049107" lon="-2.4362330977"><ele>10.71</ele><time>2014-09-24T11:17:34Z</time></trkpt><trkpt lat="51.7878412921" lon="-2.4359286670"><ele>11.19</ele><time>2014-09-24T11:17:52Z</time></trkpt><trkpt lat="51.7878122907" lon="-2.4357532337"><ele>10.71</ele><time>2014-09-24T11:18:05Z</time></trkpt><trkpt lat="51.7877941858" lon="-2.4356943090"><ele>11.19</ele><time>2014-09-24T11:18:09Z</time></trkpt><trkpt lat="51.7877330817" lon="-2.4353757966"><ele>11.19</ele><time>2014-09-24T11:18:26Z</time></trkpt><trkpt lat="51.7876859754" lon="-2.4350939970"><ele>10.71</ele><time>2014-09-24T11:18:42Z</time></trkpt><trkpt lat="51.7876237817" lon="-2.4347613193"><ele>10.71</ele><time>2014-09-24T11:19:01Z</time></trkpt><trkpt lat="51.7875713948" lon="-2.4344688747"><ele>10.71</ele><time>2014-09-24T11:19:18Z</time></trkpt><trkpt lat="51.7875146493" lon="-2.4341907632"><ele>10.71</ele><time>2014-09-24T11:19:34Z</time></trkpt><trkpt lat="51.7874820437" lon="-2.4340004940"><ele>11.19</ele><time>2014-09-24T11:19:45Z</time></trkpt><trkpt lat="51.7874270584" lon="-2.4336635415"><ele>11.19</ele><time>2014-09-24T11:20:05Z</time></trkpt><trkpt lat="51.7873944528" lon="-2.4333831668"><ele>11.19</ele><time>2014-09-24T11:20:21Z</time></trkpt><trkpt lat="51.7873284034" lon="-2.4330826756"><ele>11.19</ele><time>2014-09-24T11:20:39Z</time></trkpt><trkpt lat="51.7873119749" lon="-2.4329886306"><ele>11.19</ele><time>2014-09-24T11:20:55Z</time></trkpt><trkpt lat="51.7873113882" lon="-2.4329609703"><ele>11.19</ele><time>2014-09-24T11:21:12Z</time></trkpt><trkpt lat="51.7873041797" lon="-2.4329301249"><ele>11.19</ele><time>2014-09-24T11:21:14Z</time></trkpt><trkpt lat="51.7872621864" lon="-2.4326879717"><ele>10.71</ele><time>2014-09-24T11:21:28Z</time></trkpt><trkpt lat="51.7872206122" lon="-2.4324065913"><ele>10.23</ele><time>2014-09-24T11:21:45Z</time></trkpt><trkpt lat="51.7871769425" lon="-2.4321131408"><ele>11.19</ele><time>2014-09-24T11:22:02Z</time></trkpt><trkpt lat="51.7871177662" lon="-2.4318345264"><ele>11.19</ele><time>2014-09-24T11:22:19Z</time></trkpt><trkpt lat="51.7870693188" lon="-2.4315310176"><ele>10.23</ele><time>2014-09-24T11:22:36Z</time></trkpt><trkpt lat="51.7870346177" lon="-2.4313072208"><ele>11.19</ele><time>2014-09-24T11:22:52Z</time></trkpt><trkpt lat="51.7870296724" lon="-2.4312135950"><ele>10.71</ele><time>2014-09-24T11:23:06Z</time></trkpt><trkpt lat="51.7869607732" lon="-2.4310200568"><ele>11.19</ele><time>2014-09-24T11:23:22Z</time></trkpt><trkpt lat="51.7869201209" lon="-2.4307057355"><ele>11.19</ele><time>2014-09-24T11:23:40Z</time></trkpt><trkpt lat="51.7868974060" lon="-2.4305874668"><ele>11.67</ele><time>2014-09-24T11:23:46Z</time></trkpt><trkpt lat="51.7868443485" lon="-2.4302717205"><ele>10.71</ele><time>2014-09-24T11:24:03Z</time></trkpt><trkpt lat="51.7868013494" lon="-2.4299878255"><ele>11.19</ele><time>2014-09-24T11:24:19Z</time></trkpt><trkpt lat="51.7867420055" lon="-2.4296973087"><ele>11.19</ele><time>2014-09-24T11:24:35Z</time></trkpt><trkpt lat="51.7867252417" lon="-2.4295592587"><ele>11.67</ele><time>2014-09-24T11:24:43Z</time></trkpt><trkpt lat="51.7866682447" lon="-2.4292344600"><ele>11.67</ele><time>2014-09-24T11:25:01Z</time></trkpt><trkpt lat="51.7866484635" lon="-2.4291798100"><ele>11.67</ele><time>2014-09-24T11:25:11Z</time></trkpt><trkpt lat="51.7866526544" lon="-2.4291492160"><ele>11.19</ele><time>2014-09-24T11:25:13Z</time></trkpt><trkpt lat="51.7866292689" lon="-2.4289464578"><ele>11.67</ele><time>2014-09-24T11:25:26Z</time></trkpt><trkpt lat="51.7866274249" lon="-2.4289301969"><ele>12.15</ele><time>2014-09-24T11:25:45Z</time></trkpt><trkpt lat="51.7866332084" lon="-2.4289098289"><ele>12.15</ele><time>2014-09-24T11:25:58Z</time></trkpt><trkpt lat="51.7866168637" lon="-2.4288737029"><ele>11.19</ele><time>2014-09-24T11:26:16Z</time></trkpt><trkpt lat="51.7866195459" lon="-2.4289073143"><ele>11.67</ele><time>2014-09-24T11:26:41Z</time></trkpt><trkpt lat="51.7866176181" lon="-2.4289030395"><ele>11.19</ele><time>2014-09-24T11:27:09Z</time></trkpt><trkpt lat="51.7866818234" lon="-2.4288931489"><ele>10.71</ele><time>2014-09-24T11:27:23Z</time></trkpt><trkpt lat="51.7868504673" lon="-2.4288655724"><ele>10.23</ele><time>2014-09-24T11:27:38Z</time></trkpt><trkpt lat="51.7869086377" lon="-2.4288299493"><ele>9.75</ele><time>2014-09-24T11:27:56Z</time></trkpt><trkpt lat="51.7869196180" lon="-2.4288327154"><ele>9.75</ele><time>2014-09-24T11:27:57Z</time></trkpt><trkpt lat="51.7871793732" lon="-2.4288670812"><ele>9.75</ele><time>2014-09-24T11:28:18Z</time></trkpt><trkpt lat="51.7874170840" lon="-2.4288327154"><ele>9.27</ele><time>2014-09-24T11:28:38Z</time></trkpt><trkpt lat="51.7876017373" lon="-2.4287410174"><ele>9.27</ele><time>2014-09-24T11:28:57Z</time></trkpt><trkpt lat="51.7877144739" lon="-2.4286464695"><ele>9.75</ele><time>2014-09-24T11:29:09Z</time></trkpt><trkpt lat="51.7879952677" lon="-2.4284430407"><ele>10.23</ele><time>2014-09-24T11:29:30Z</time></trkpt><trkpt lat="51.7881585471" lon="-2.4282840360"><ele>9.75</ele><time>2014-09-24T11:29:48Z</time></trkpt><trkpt lat="51.7883643229" lon="-2.4281530268"><ele>10.23</ele><time>2014-09-24T11:30:06Z</time></trkpt><trkpt lat="51.7884789035" lon="-2.4280777574"><ele>9.27</ele><time>2014-09-24T11:30:21Z</time></trkpt><trkpt lat="51.7885440309" lon="-2.4280898273"><ele>5.91</ele><time>2014-09-24T11:30:28Z</time></trkpt><trkpt lat="51.7885476351" lon="-2.4281047471"><ele>27.05</ele><time>2014-09-24T11:30:30Z</time></trkpt><trkpt lat="51.7885499820" lon="-2.4281131290"><ele>8.79</ele><time>2014-09-24T11:30:31Z</time></trkpt><trkpt lat="51.7885529157" lon="-2.4281203374"><ele>-7.07</ele><time>2014-09-24T11:30:32Z</time></trkpt><trkpt lat="51.7885555141" lon="-2.4281267077"><ele>10.23</ele><time>2014-09-24T11:30:33Z</time></trkpt><trkpt lat="51.7885579448" lon="-2.4281292222"><ele>17.92</ele><time>2014-09-24T11:30:34Z</time></trkpt><trkpt lat="51.7885617167" lon="-2.4281309824"><ele>10.71</ele><time>2014-09-24T11:30:35Z</time></trkpt><trkpt lat="51.7885704339" lon="-2.4281366821"><ele>5.91</ele><time>2014-09-24T11:30:37Z</time></trkpt><trkpt lat="51.7885726970" lon="-2.4281433038"><ele>-5.15</ele><time>2014-09-24T11:30:38Z</time></trkpt><trkpt lat="51.7885751277" lon="-2.4281524401"><ele>16.96</ele><time>2014-09-24T11:30:39Z</time></trkpt><trkpt lat="51.7885760497" lon="-2.4281589780"><ele>10.23</ele><time>2014-09-24T11:30:40Z</time></trkpt><trkpt lat="51.7885755468" lon="-2.4281364307"><ele>0.62</ele><time>2014-09-24T11:30:44Z</time></trkpt><trkpt lat="51.7885751277" lon="-2.4281345028"><ele>9.27</ele><time>2014-09-24T11:30:45Z</time></trkpt><trkpt lat="51.7885760497" lon="-2.4281341676"><ele>4.94</ele><time>2014-09-24T11:30:46Z</time></trkpt><trkpt lat="51.7885779776" lon="-2.4281337485"><ele>13.12</ele><time>2014-09-24T11:30:47Z</time></trkpt><trkpt lat="51.7885788158" lon="-2.4281321559"><ele>9.75</ele><time>2014-09-24T11:30:48Z</time></trkpt><trkpt lat="51.7885235790" lon="-2.4280666094"><ele>9.75</ele><time>2014-09-24T11:31:06Z</time></trkpt><trkpt lat="51.7885160353" lon="-2.4281021487"><ele>9.75</ele><time>2014-09-24T11:31:25Z</time></trkpt><trkpt lat="51.7887456156" lon="-2.4279321637"><ele>9.75</ele><time>2014-09-24T11:31:46Z</time></trkpt><trkpt lat="51.7887783889" lon="-2.4279839639"><ele>8.79</ele><time>2014-09-24T11:32:07Z</time></trkpt><trkpt lat="51.7889534868" lon="-2.4280083552"><ele>9.75</ele><time>2014-09-24T11:32:24Z</time></trkpt><trkpt lat="51.7891121563" lon="-2.4281703774"><ele>9.27</ele><time>2014-09-24T11:32:41Z</time></trkpt><trkpt lat="51.7892619409" lon="-2.4282352533"><ele>10.23</ele><time>2014-09-24T11:32:57Z</time></trkpt><trkpt lat="51.7894558143" lon="-2.4282424618"><ele>9.75</ele><time>2014-09-24T11:33:14Z</time></trkpt><trkpt lat="51.7896645237" lon="-2.4283819366"><ele>9.27</ele><time>2014-09-24T11:33:29Z</time></trkpt><trkpt lat="51.7897052597" lon="-2.4283976946"><ele>9.27</ele><time>2014-09-24T11:33:33Z</time></trkpt><trkpt lat="51.7897557188" lon="-2.4284329824"><ele>9.27</ele><time>2014-09-24T11:33:37Z</time></trkpt><trkpt lat="51.7899205908" lon="-2.4285014626"><ele>9.27</ele><time>2014-09-24T11:33:50Z</time></trkpt><trkpt lat="51.7899681162" lon="-2.4285142031"><ele>9.27</ele><time>2014-09-24T11:33:54Z</time></trkpt><trkpt lat="51.7901785020" lon="-2.4285504967"><ele>9.27</ele><time>2014-09-24T11:34:11Z</time></trkpt><trkpt lat="51.7903713696" lon="-2.4284649175"><ele>8.79</ele><time>2014-09-24T11:34:28Z</time></trkpt><trkpt lat="51.7904696893" lon="-2.4283004645"><ele>7.83</ele><time>2014-09-24T11:34:43Z</time></trkpt><trkpt lat="51.7905373313" lon="-2.4280765839"><ele>7.83</ele><time>2014-09-24T11:34:55Z</time></trkpt><trkpt lat="51.7906573601" lon="-2.4276663736"><ele>8.31</ele><time>2014-09-24T11:35:13Z</time></trkpt><trkpt lat="51.7907109205" lon="-2.4273196142"><ele>8.31</ele><time>2014-09-24T11:35:27Z</time></trkpt><trkpt lat="51.7906912230" lon="-2.4270744435"><ele>8.79</ele><time>2014-09-24T11:35:44Z</time></trkpt><trkpt lat="51.7907509860" lon="-2.4269033689"><ele>8.79</ele><time>2014-09-24T11:36:01Z</time></trkpt><trkpt lat="51.7908112518" lon="-2.4268560950"><ele>9.27</ele><time>2014-09-24T11:36:14Z</time></trkpt><trkpt lat="51.7908530775" lon="-2.4268359784"><ele>8.31</ele><time>2014-09-24T11:36:16Z</time></trkpt><trkpt lat="51.7911083903" lon="-2.4268633872"><ele>8.31</ele><time>2014-09-24T11:36:35Z</time></trkpt><trkpt lat="51.7912819795" lon="-2.4269824941"><ele>8.79</ele><time>2014-09-24T11:36:48Z</time></trkpt><trkpt lat="51.7915356997" lon="-2.4270249065"><ele>9.27</ele><time>2014-09-24T11:37:06Z</time></trkpt><trkpt lat="51.7916936148" lon="-2.4269985873"><ele>9.75</ele><time>2014-09-24T11:37:18Z</time></trkpt><trkpt lat="51.7918987200" lon="-2.4269090686"><ele>9.75</ele><time>2014-09-24T11:37:34Z</time></trkpt><trkpt lat="51.7920937669" lon="-2.4268102460"><ele>10.71</ele><time>2014-09-24T11:37:50Z</time></trkpt><trkpt lat="51.7923143785" lon="-2.4267472979"><ele>10.23</ele><time>2014-09-24T11:38:08Z</time></trkpt><trkpt lat="51.7925116885" lon="-2.4267223198"><ele>10.71</ele><time>2014-09-24T11:38:25Z</time></trkpt><trkpt lat="51.7927239183" lon="-2.4266605452"><ele>11.19</ele><time>2014-09-24T11:38:43Z</time></trkpt><trkpt lat="51.7929531634" lon="-2.4265550170"><ele>10.71</ele><time>2014-09-24T11:39:02Z</time></trkpt><trkpt lat="51.7931367271" lon="-2.4264795799"><ele>10.23</ele><time>2014-09-24T11:39:19Z</time></trkpt><trkpt lat="51.7933756113" lon="-2.4264052324"><ele>10.71</ele><time>2014-09-24T11:39:37Z</time></trkpt><trkpt lat="51.7935683113" lon="-2.4263886362"><ele>11.19</ele><time>2014-09-24T11:39:54Z</time></trkpt><trkpt lat="51.7935919482" lon="-2.4263863731"><ele>10.71</ele><time>2014-09-24T11:39:56Z</time></trkpt><trkpt lat="51.7938434053" lon="-2.4263306335"><ele>11.67</ele><time>2014-09-24T11:40:14Z</time></trkpt><trkpt lat="51.7940161563" lon="-2.4263086729"><ele>11.67</ele><time>2014-09-24T11:40:30Z</time></trkpt><trkpt lat="51.7942537833" lon="-2.4262677692"><ele>11.67</ele><time>2014-09-24T11:40:49Z</time></trkpt><trkpt lat="51.7944591399" lon="-2.4262129515"><ele>11.19</ele><time>2014-09-24T11:41:04Z</time></trkpt><trkpt lat="51.7946624849" lon="-2.4261287972"><ele>11.19</ele><time>2014-09-24T11:41:22Z</time></trkpt><trkpt lat="51.7947840225" lon="-2.4260735605"><ele>11.19</ele><time>2014-09-24T11:41:33Z</time></trkpt><trkpt lat="51.7949437816" lon="-2.4259708822"><ele>10.71</ele><time>2014-09-24T11:41:47Z</time></trkpt><trkpt lat="51.7951163650" lon="-2.4259045813"><ele>11.67</ele><time>2014-09-24T11:42:00Z</time></trkpt><trkpt lat="51.7952995934" lon="-2.4258010648"><ele>11.19</ele><time>2014-09-24T11:42:15Z</time></trkpt><trkpt lat="51.7954628728" lon="-2.4257236160"><ele>11.19</ele><time>2014-09-24T11:42:28Z</time></trkpt><trkpt lat="51.7955795489" lon="-2.4256193452"><ele>10.71</ele><time>2014-09-24T11:42:41Z</time></trkpt><trkpt lat="51.7955903616" lon="-2.4256059341"><ele>11.19</ele><time>2014-09-24T11:42:44Z</time></trkpt><trkpt lat="51.7956357915" lon="-2.4255496077"><ele>10.71</ele><time>2014-09-24T11:42:48Z</time></trkpt><trkpt lat="51.7957664654" lon="-2.4253890943"><ele>10.23</ele><time>2014-09-24T11:43:02Z</time></trkpt><trkpt lat="51.7959004082" lon="-2.4251988251"><ele>10.23</ele><time>2014-09-24T11:43:17Z</time></trkpt><trkpt lat="51.7960272264" lon="-2.4249575939"><ele>10.23</ele><time>2014-09-24T11:43:32Z</time></trkpt><trkpt lat="51.7960921023" lon="-2.4248632137"><ele>10.23</ele><time>2014-09-24T11:43:39Z</time></trkpt><trkpt lat="51.7962436471" lon="-2.4246789794"><ele>9.75</ele><time>2014-09-24T11:43:56Z</time></trkpt><trkpt lat="51.7964156438" lon="-2.4245273508"><ele>11.19</ele><time>2014-09-24T11:44:11Z</time></trkpt><trkpt lat="51.7965202499" lon="-2.4244859442"><ele>11.19</ele><time>2014-09-24T11:44:21Z</time></trkpt><trkpt lat="51.7966660950" lon="-2.4244130217"><ele>9.75</ele><time>2014-09-24T11:44:34Z</time></trkpt><trkpt lat="51.7967266124" lon="-2.4243296217"><ele>11.19</ele><time>2014-09-24T11:44:46Z</time></trkpt><trkpt lat="51.7967367545" lon="-2.4242863711"><ele>10.71</ele><time>2014-09-24T11:44:59Z</time></trkpt><trkpt lat="51.7967359163" lon="-2.4242885504"><ele>11.67</ele><time>2014-09-24T11:45:01Z</time></trkpt></trkseg></trk></gpx>